Darstellungsparameter: Aktuell verwendete Einstellungen:
Skalierung der Graphiken ... ?
xyx+y,   Skalierungsfaktor:      Skalierung: Modus: x, Faktor: 1
Darstellungszeitraum ... ?
Vom - - bis: - -   Zeitraum: 11.09.2011 - 24.09.2011
Min/Max/Avg-Anzeige ... ?
Zeige MMA aktuell
Zeige MMA Monat
Zeige MMA alles
Zeige --A aktuell
Zeige --A Monat
Zeige --A alles
Keine MMA-Anzeige
MMA:
Average (ber die Originaldaten)
MMA-Basis: 11.09.2011 - 24.09.2011
Quicknavigation für Darstellung... ?
Tage:      1T, 2T, 3T, 5T -1T -2T -3T -5T +1T +2T +3T +5T
Wochen: 1W, 2W, 3W -1W -2W -3W +1W +2W +3W
Monate: 1M, 3M, 6M -1M -3M -6M +1M +3M +6M
Jahre:    1J, 3J, 5J, 10J -1J -3J -5J -10J +1J +3J +5J +10J
Nutze für die Darstellung ... ?
Originaldaten oder Mittelwerte auf ...
Stundenbasis Tagesbasis Wochenbasis
Monatsbasis Jahresbasis      Datenbasis: Original-Daten
Darstellen als:
Statistik (Auto) Statistik J:M      Darstellung:
Zur Graphik,    zurück zur Übersicht aller Sensoren.
 
Tabellarische Datenbersicht: ?
 
Sensor: Nr:Datum:Temp:Abs-Feuchte:Windchill:Wind:
Aussen-T/F 1 11-09-2011 00:06:58 19.6 C 14.52 g/m*3 19.6 C 0 km/h
2 11-09-2011 00:18:56 19.6 C 14.52 g/m*3 19.6 C 0 km/h
3 11-09-2011 00:30:49 19.8 C 14.69 g/m*3 19.8 C 0 km/h
4 11-09-2011 00:42:49 19.6 C 14.52 g/m*3 19.6 C 0 km/h
5 11-09-2011 00:54:00 19.5 C 14.43 g/m*3 19.5 C 0 km/h
6 11-09-2011 01:06:57 19.2 C 14.02 g/m*3 19.2 C 0 km/h
7 11-09-2011 01:18:58 19.1 C 13.93 g/m*3 19.1 C 0 km/h
8 11-09-2011 01:30:57 19.2 C 14.18 g/m*3 19.2 C 0 km/h
9 11-09-2011 01:42:57 19.6 C 14.35 g/m*3 19.6 C 0 km/h
10 11-09-2011 01:54:00 19.6 C 14.18 g/m*3 19.6 C 0 km/h
11 11-09-2011 02:06:00 19.7 C 14.26 g/m*3 19.7 C 0 km/h
12 11-09-2011 02:18:00 19.9 C 14.26 g/m*3 19.9 C 0 km/h
13 11-09-2011 02:30:00 20.1 C 13.73 g/m*3 20.1 C 0 km/h
14 11-09-2011 02:42:59 20.4 C 13.44 g/m*3 20.4 C 0 km/h
15 11-09-2011 02:54:01 20.4 C 13.44 g/m*3 20.4 C 0 km/h
16 11-09-2011 03:06:01 20.4 C 13.44 g/m*3 20.4 C 0 km/h
17 11-09-2011 03:18:02 20.4 C 13.27 g/m*3 20.4 C 0 km/h
18 11-09-2011 03:30:02 20.2 C 13.29 g/m*3 20.2 C 0 km/h
19 11-09-2011 03:43:01 20.2 C 13.29 g/m*3 20.2 C 0 km/h
20 11-09-2011 03:55:02 20 C 13.13 g/m*3 20 C 0 km/h
21 11-09-2011 04:07:01 19.8 C 13.49 g/m*3 19.8 C 0 km/h
22 11-09-2011 04:19:01 19.7 C 13.41 g/m*3 19.7 C 0 km/h
23 11-09-2011 04:31:02 19.5 C 13.26 g/m*3 19.5 C 0 km/h
24 11-09-2011 04:43:02 20.2 C 13.11 g/m*3 20.2 C 0 km/h
25 11-09-2011 04:55:01 19.7 C 13.08 g/m*3 19.7 C 0 km/h
Sensor: Nr:Datum:Temp:Abs-Feuchte:Windchill:Wind:
Aussen-T/F 26 11-09-2011 05:07:02 19.5 C 13.09 g/m*3 19.5 C 0 km/h
27 11-09-2011 05:19:01 19.7 C 13.25 g/m*3 19.7 C 0 km/h
28 11-09-2011 05:31:01 19 C 13.04 g/m*3 19 C 0 km/h
29 11-09-2011 05:43:01 19.2 C 13.03 g/m*3 19.2 C 0 km/h
30 11-09-2011 05:55:01 19.1 C 12.79 g/m*3 19.1 C 0 km/h
31 11-09-2011 06:07:01 18.5 C 12.66 g/m*3 18.5 C 0 km/h
32 11-09-2011 06:19:01 18.1 C 12.67 g/m*3 18.1 C 0 km/h
33 11-09-2011 06:31:01 17.9 C 12.83 g/m*3 17.9 C 0 km/h
34 11-09-2011 06:43:01 18.1 C 12.82 g/m*3 18.1 C 0 km/h
35 11-09-2011 06:55:01 17.9 C 12.83 g/m*3 17.9 C 0 km/h
36 11-09-2011 07:07:01 18 C 12.9 g/m*3 18 C 0 km/h
37 11-09-2011 07:19:02 18 C 12.9 g/m*3 18 C 0 km/h
38 11-09-2011 07:31:01 18 C 12.9 g/m*3 18 C 0 km/h
39 11-09-2011 07:43:01 17.8 C 12.9 g/m*3 17.8 C 0 km/h
40 11-09-2011 07:55:02 17.7 C 12.82 g/m*3 17.7 C 0 km/h
41 11-09-2011 08:07:01 17.7 C 12.98 g/m*3 17.7 C 0 km/h
42 11-09-2011 08:19:01 17.7 C 12.98 g/m*3 17.7 C 0 km/h
43 11-09-2011 08:31:02 17.6 C 12.9 g/m*3 17.6 C 0 km/h
44 11-09-2011 08:43:02 17.7 C 12.98 g/m*3 17.7 C 0 km/h
45 11-09-2011 08:55:01 17.9 C 13.13 g/m*3 17.9 C 0 km/h
46 11-09-2011 09:07:02 18.1 C 13.29 g/m*3 18.1 C 0 km/h
47 11-09-2011 09:19:01 19 C 13.85 g/m*3 19 C 0 km/h
48 11-09-2011 09:31:01 19.5 C 14.27 g/m*3 19.5 C 0 km/h
49 11-09-2011 09:43:02 19.6 C 14.18 g/m*3 19.6 C 0 km/h
50 11-09-2011 09:55:01 21.3 C 12.86 g/m*3 21.3 C 0 km/h
Sensor: Nr:Datum:Temp:Abs-Feuchte:Windchill:Wind:
Aussen-T/F 51 11-09-2011 10:07:01 22.1 C 12.1 g/m*3 22.1 C 0 km/h
52 11-09-2011 10:19:01 22.1 C 11.91 g/m*3 22.1 C 0 km/h
53 11-09-2011 10:31:01 22.7 C 11.92 g/m*3 22.7 C 0 km/h
54 11-09-2011 10:43:01 22.8 C 12.19 g/m*3 22.8 C 0 km/h
55 11-09-2011 10:55:01 22.9 C 11.65 g/m*3 22.9 C 0 km/h
56 11-09-2011 11:07:01 23.2 C 11.43 g/m*3 23.2 C 0 km/h
57 11-09-2011 11:18:02 23.1 C 10.96 g/m*3 23.1 C 0 km/h
58 11-09-2011 11:30:02 23.5 C 11 g/m*3 23.5 C 0 km/h
59 11-09-2011 11:42:01 24.1 C 11.16 g/m*3 24.1 C 0 km/h
60 11-09-2011 11:54:02 23.7 C 11.76 g/m*3 23.7 C 0 km/h
61 11-09-2011 12:06:01 22.9 C 12.06 g/m*3 22.9 C 0 km/h
62 11-09-2011 12:18:01 22.9 C 12.88 g/m*3 22.9 C 0 km/h
63 11-09-2011 12:30:01 23.3 C 12.13 g/m*3 23.3 C 0 km/h
64 11-09-2011 12:42:01 22.8 C 12.4 g/m*3 22.8 C 0 km/h
65 11-09-2011 12:54:02 22 C 11.84 g/m*3 22 C 0 km/h
66 11-09-2011 13:06:19 20.2 C 12.41 g/m*3 20.2 C 0 km/h
67 11-09-2011 13:18:19 19 C 12.87 g/m*3 19 C 0 km/h
68 11-09-2011 13:30:02 18.3 C 12.66 g/m*3 18.3 C 0 km/h
69 11-09-2011 13:42:02 18.4 C 13.05 g/m*3 18.4 C 0 km/h
70 11-09-2011 13:54:02 18.2 C 13.06 g/m*3 18.2 C 0 km/h
71 11-09-2011 14:06:01 18.1 C 12.98 g/m*3 18.1 C 0 km/h
72 11-09-2011 14:18:01 18 C 13.06 g/m*3 18 C 0 km/h
73 11-09-2011 14:30:01 17.6 C 12.9 g/m*3 17.6 C 0 km/h
74 11-09-2011 14:42:01 17.4 C 12.89 g/m*3 17.4 C 0 km/h
75 11-09-2011 14:54:02 17.3 C 12.82 g/m*3 17.3 C 0 km/h
Sensor: Nr:Datum:Temp:Abs-Feuchte:Windchill:Wind:
Aussen-T/F 76 11-09-2011 15:06:02 17.2 C 12.74 g/m*3 17.2 C 0 km/h
77 11-09-2011 15:17:06 17.3 C 12.82 g/m*3 17.3 C 0 km/h
78 11-09-2011 15:29:06 17.2 C 12.89 g/m*3 17.2 C 0 km/h
79 11-09-2011 15:41:03 17.4 C 13.04 g/m*3 17.4 C 0 km/h
80 11-09-2011 15:53:01 17.4 C 12.89 g/m*3 17.4 C 0 km/h
81 11-09-2011 16:05:01 17.2 C 12.74 g/m*3 17.2 C 0 km/h
82 11-09-2011 16:17:02 17.3 C 12.82 g/m*3 17.3 C 0 km/h
83 11-09-2011 16:29:02 17 C 12.59 g/m*3 17 C 0 km/h
84 11-09-2011 16:41:01 16.5 C 12.22 g/m*3 16.5 C 0 km/h
85 11-09-2011 16:52:02 16 C 11.72 g/m*3 16 C 0 km/h
86 11-09-2011 17:04:01 15.8 C 11.71 g/m*3 15.8 C 0 km/h
87 11-09-2011 17:16:01 15.8 C 11.85 g/m*3 15.8 C 0 km/h
88 11-09-2011 17:28:02 15.7 C 11.77 g/m*3 15.7 C 0 km/h
89 11-09-2011 17:40:01 15.5 C 11.63 g/m*3 15.5 C 0 km/h
90 11-09-2011 17:52:02 15.4 C 11.56 g/m*3 15.4 C 0 km/h
91 11-09-2011 18:04:01 15.4 C 11.56 g/m*3 15.4 C 0 km/h
92 11-09-2011 18:15:01 15.4 C 11.56 g/m*3 15.4 C 0 km/h
93 11-09-2011 18:27:01 15.3 C 11.49 g/m*3 15.3 C 0 km/h
94 11-09-2011 18:39:02 15.1 C 11.35 g/m*3 15.1 C 0 km/h
95 11-09-2011 18:51:01 15.2 C 11.29 g/m*3 15.2 C 0 km/h
96 11-09-2011 19:03:02 15.2 C 11.29 g/m*3 15.2 C 0 km/h
97 11-09-2011 19:15:01 15 C 11.16 g/m*3 15 C 0 km/h
98 11-09-2011 19:27:01 14.7 C 11.08 g/m*3 14.7 C 0 km/h
99 11-09-2011 19:39:01 14.7 C 11.08 g/m*3 14.7 C 0 km/h
100 11-09-2011 19:50:01 14.6 C 11.01 g/m*3 14.6 C 0 km/h
Sensor: Nr:Datum:Temp:Abs-Feuchte:Windchill:Wind:
Aussen-T/F 101 11-09-2011 20:02:01 14.3 C 10.81 g/m*3 14.3 C 0 km/h
102 11-09-2011 20:14:01 13.9 C 10.55 g/m*3 13.9 C 0 km/h
103 11-09-2011 20:26:01 13.6 C 10.36 g/m*3 13.6 C 0 km/h
104 11-09-2011 20:38:01 13.6 C 10.47 g/m*3 13.6 C 0 km/h
105 11-09-2011 20:50:01 13.6 C 10.47 g/m*3 13.6 C 0 km/h
106 11-09-2011 21:02:01 13.6 C 10.47 g/m*3 13.6 C 0 km/h
107 11-09-2011 21:14:01 13.7 C 10.54 g/m*3 13.7 C 0 km/h
108 11-09-2011 21:25:02 13.6 C 10.47 g/m*3 13.6 C 0 km/h
109 11-09-2011 21:37:01 13.5 C 10.41 g/m*3 13.5 C 0 km/h
110 11-09-2011 21:49:02 13.1 C 10.16 g/m*3 13.1 C 0 km/h
111 11-09-2011 22:07:34 12.9 C 10.03 g/m*3 12.9 C 0 km/h
112 11-09-2011 22:19:34 12.7 C 9.91 g/m*3 12.7 C 0 km/h
113 11-09-2011 22:31:34 12.6 C 9.85 g/m*3 12.6 C 0 km/h
114 11-09-2011 22:43:34 12.5 C 9.78 g/m*3 12.5 C 0 km/h
115 11-09-2011 22:55:34 12.8 C 9.97 g/m*3 12.8 C 0 km/h
116 11-09-2011 23:07:34 12.8 C 10.08 g/m*3 12.8 C 0 km/h
117 11-09-2011 23:19:34 12.6 C 9.96 g/m*3 12.6 C 0 km/h
118 11-09-2011 23:31:34 12.1 C 9.54 g/m*3 12.1 C 0 km/h
119 11-09-2011 23:43:35 12.9 C 10.14 g/m*3 12.9 C 0 km/h
120 11-09-2011 23:55:35 13.1 C 10.27 g/m*3 13.1 C 0 km/h
121 12-09-2011 00:07:35 13.2 C 10.33 g/m*3 13.2 C 0 km/h
122 12-09-2011 00:19:35 13 C 10.21 g/m*3 13 C 0 km/h
123 12-09-2011 00:31:35 12.9 C 10.14 g/m*3 12.9 C 0 km/h
124 12-09-2011 00:43:35 12.7 C 10.02 g/m*3 12.7 C 0 km/h
125 12-09-2011 00:55:35 12.8 C 10.08 g/m*3 12.8 C 0 km/h
Sensor: Nr:Datum:Temp:Abs-Feuchte:Windchill:Wind:
Aussen-T/F 126 12-09-2011 01:07:35 12.6 C 9.96 g/m*3 12.6 C 0 km/h
127 12-09-2011 01:19:35 12.2 C 9.71 g/m*3 12.2 C 0 km/h
128 12-09-2011 01:31:35 12.4 C 9.83 g/m*3 12.4 C 0 km/h
129 12-09-2011 01:43:35 12.4 C 9.83 g/m*3 12.4 C 0 km/h
130 12-09-2011 01:55:35 12.4 C 9.83 g/m*3 12.4 C 0 km/h
131 12-09-2011 02:07:35 12.6 C 9.96 g/m*3 12.6 C 0 km/h
132 12-09-2011 02:19:35 12.3 C 9.77 g/m*3 12.3 C 0 km/h
133 12-09-2011 02:31:35 12.3 C 9.88 g/m*3 12.3 C 0 km/h
134 12-09-2011 02:43:35 12.4 C 9.94 g/m*3 12.4 C 0 km/h
135 12-09-2011 02:55:35 12.8 C 10.19 g/m*3 12.8 C 0 km/h
136 12-09-2011 03:07:35 12.9 C 10.26 g/m*3 12.9 C 0 km/h
137 12-09-2011 03:19:35 13 C 10.21 g/m*3 13 C 0 km/h
138 12-09-2011 03:31:35 12.8 C 10.19 g/m*3 12.8 C 0 km/h
139 12-09-2011 03:43:35 12.7 C 10.13 g/m*3 12.7 C 0 km/h
140 12-09-2011 03:55:35 12.8 C 10.19 g/m*3 12.8 C 0 km/h
141 12-09-2011 04:07:35 12.8 C 10.3 g/m*3 12.8 C 0 km/h
142 12-09-2011 04:19:36 12.7 C 10.13 g/m*3 12.7 C 0 km/h
143 12-09-2011 04:31:36 12.6 C 10.07 g/m*3 12.6 C 0 km/h
144 12-09-2011 04:43:36 12.5 C 10 g/m*3 12.5 C 0 km/h
145 12-09-2011 04:55:36 12.7 C 10.13 g/m*3 12.7 C 0 km/h
146 12-09-2011 05:07:36 12.6 C 10.07 g/m*3 12.6 C 0 km/h
147 12-09-2011 05:19:36 12.5 C 10 g/m*3 12.5 C 0 km/h
148 12-09-2011 05:31:36 12.2 C 9.82 g/m*3 12.2 C 0 km/h
149 12-09-2011 05:43:36 12.3 C 9.88 g/m*3 12.3 C 0 km/h
150 12-09-2011 05:55:36 12.2 C 9.82 g/m*3 12.2 C 0 km/h
Sensor: Nr:Datum:Temp:Abs-Feuchte:Windchill:Wind:
Aussen-T/F 151 12-09-2011 06:07:36 12.1 C 9.76 g/m*3 12.1 C 0 km/h
152 12-09-2011 06:19:36 12.1 C 9.76 g/m*3 12.1 C 0 km/h
153 12-09-2011 06:31:36 11.9 C 9.64 g/m*3 11.9 C 0 km/h
154 12-09-2011 06:43:36 12.1 C 9.76 g/m*3 12.1 C 0 km/h
155 12-09-2011 06:55:36 12.1 C 9.76 g/m*3 12.1 C 0 km/h
156 12-09-2011 07:07:36 12.1 C 9.76 g/m*3 12.1 C 0 km/h
157 12-09-2011 07:19:36 12.4 C 9.94 g/m*3 12.4 C 0 km/h
158 12-09-2011 07:31:44 12.9 C 10.26 g/m*3 12.9 C 0 km/h
159 12-09-2011 07:43:53 13.1 C 10.38 g/m*3 13.1 C 0 km/h
160 12-09-2011 07:55:36 13.3 C 10.51 g/m*3 13.3 C 0 km/h
161 12-09-2011 08:07:38 13.7 C 10.78 g/m*3 13.7 C 0 km/h
162 12-09-2011 08:19:34 13.9 C 10.91 g/m*3 13.9 C 0 km/h
163 12-09-2011 08:31:34 14 C 10.86 g/m*3 14 C 0 km/h
164 12-09-2011 08:43:36 13.9 C 10.91 g/m*3 13.9 C 0 km/h
165 12-09-2011 08:55:29 14.2 C 10.99 g/m*3 14.2 C 0 km/h
166 12-09-2011 09:07:23 14.1 C 10.92 g/m*3 14.1 C 0 km/h
167 12-09-2011 09:19:02 14.6 C 11.26 g/m*3 14.6 C 0 km/h
168 12-09-2011 09:31:02 14.8 C 11.27 g/m*3 14.8 C 0 km/h
169 12-09-2011 09:43:02 15 C 11.16 g/m*3 15 C 0 km/h
170 12-09-2011 09:55:02 15.6 C 11.17 g/m*3 15.6 C 0 km/h
171 12-09-2011 10:07:02 15.9 C 11.1 g/m*3 15.9 C 0 km/h
172 12-09-2011 10:19:01 16.2 C 10.89 g/m*3 16.2 C 0 km/h
173 12-09-2011 10:31:02 16.6 C 10.31 g/m*3 16.6 C 0 km/h
174 12-09-2011 10:43:02 16.8 C 10.15 g/m*3 16.8 C 0 km/h
175 12-09-2011 10:55:02 17.4 C 9.48 g/m*3 17.4 C 0 km/h
Sensor: Nr:Datum:Temp:Abs-Feuchte:Windchill:Wind:
Aussen-T/F 176 12-09-2011 11:07:02 17.9 C 9.77 g/m*3 17.9 C 0 km/h
177 12-09-2011 11:19:01 18.1 C 9.73 g/m*3 18.1 C 0 km/h
178 12-09-2011 11:31:02 18.6 C 8.75 g/m*3 18.6 C 0 km/h
179 12-09-2011 11:43:02 18.4 C 8.81 g/m*3 18.4 C 0 km/h
180 12-09-2011 11:55:01 18.2 C 9.01 g/m*3 18.2 C 0 km/h
181 12-09-2011 12:07:02 18.4 C 8.97 g/m*3 18.4 C 0 km/h
182 12-09-2011 12:19:02 18.6 C 8.91 g/m*3 18.6 C 0 km/h
183 12-09-2011 12:31:01 18.9 C 8.91 g/m*3 18.9 C 0 km/h
184 12-09-2011 12:43:01 18.9 C 9.23 g/m*3 18.9 C 0 km/h
185 12-09-2011 12:55:02 19.9 C 9.11 g/m*3 19.9 C 0 km/h
186 12-09-2011 13:07:01 20 C 8.64 g/m*3 20 C 0 km/h
187 12-09-2011 13:19:01 20.1 C 8.69 g/m*3 20.1 C 0 km/h
188 12-09-2011 13:31:02 20.8 C 8.69 g/m*3 20.8 C 0 km/h
189 12-09-2011 13:43:02 21.2 C 8.71 g/m*3 21.2 C 0 km/h
190 12-09-2011 13:55:02 21.5 C 8.11 g/m*3 21.5 C 0 km/h
191 12-09-2011 14:07:01 21.8 C 8.44 g/m*3 21.8 C 0 km/h
192 12-09-2011 14:19:02 22.1 C 8.2 g/m*3 22.1 C 0 km/h
193 12-09-2011 14:31:02 22.1 C 8.59 g/m*3 22.1 C 0 km/h
194 12-09-2011 14:43:02 22.6 C 8.04 g/m*3 22.6 C 0 km/h
195 12-09-2011 14:55:02 22.8 C 8.33 g/m*3 22.8 C 0 km/h
196 12-09-2011 15:07:02 23.4 C 8.2 g/m*3 23.4 C 0 km/h
197 12-09-2011 15:19:02 24.8 C 7.74 g/m*3 24.8 C 0 km/h
198 12-09-2011 15:31:02 25.2 C 7.45 g/m*3 25.2 C 0 km/h
199 12-09-2011 15:43:02 26.8 C 7.64 g/m*3 26.8 C 0 km/h
200 12-09-2011 15:55:01 26.2 C 7.14 g/m*3 26.2 C 0 km/h
Sensor: Nr:Datum:Temp:Abs-Feuchte:Windchill:Wind:
Aussen-T/F 201 12-09-2011 16:07:01 25.6 C 7.14 g/m*3 25.6 C 0 km/h
202 12-09-2011 16:19:02 27.3 C 7.85 g/m*3 27.3 C 0 km/h
203 12-09-2011 16:31:01 24.9 C 7.55 g/m*3 24.9 C 0 km/h
204 12-09-2011 16:43:01 23.4 C 7.78 g/m*3 23.4 C 0 km/h
205 12-09-2011 16:55:02 23.6 C 7.87 g/m*3 23.6 C 0 km/h
206 12-09-2011 17:07:02 23.7 C 8.34 g/m*3 23.7 C 0 km/h
207 12-09-2011 17:19:03 23 C 8.22 g/m*3 23 C 0 km/h
208 12-09-2011 17:31:02 22.5 C 8.39 g/m*3 22.5 C 0 km/h
209 12-09-2011 17:43:02 21.9 C 9.26 g/m*3 21.9 C 0 km/h
210 12-09-2011 17:55:02 21.8 C 9.02 g/m*3 21.8 C 0 km/h
211 12-09-2011 18:07:02 21.8 C 9.02 g/m*3 21.8 C 0 km/h
212 12-09-2011 18:19:02 21.7 C 9.16 g/m*3 21.7 C 0 km/h
213 12-09-2011 18:31:02 21.5 C 9.24 g/m*3 21.5 C 0 km/h
214 12-09-2011 18:43:02 21.5 C 9.05 g/m*3 21.5 C 0 km/h
215 12-09-2011 18:55:02 21.4 C 9.19 g/m*3 21.4 C 0 km/h
216 12-09-2011 19:07:02 21.1 C 9.21 g/m*3 21.1 C 0 km/h
217 12-09-2011 19:19:01 20.9 C 9.47 g/m*3 20.9 C 0 km/h
218 12-09-2011 19:31:02 20.8 C 9.78 g/m*3 20.8 C 0 km/h
219 12-09-2011 19:43:03 20.3 C 9.85 g/m*3 20.3 C 0 km/h
220 12-09-2011 19:55:02 20 C 10.02 g/m*3 20 C 0 km/h
221 12-09-2011 20:07:02 20.2 C 10.14 g/m*3 20.2 C 0 km/h
222 12-09-2011 20:19:01 20.1 C 10.26 g/m*3 20.1 C 0 km/h
223 12-09-2011 20:31:02 20 C 10.2 g/m*3 20 C 0 km/h
224 12-09-2011 20:43:02 19.9 C 10.31 g/m*3 19.9 C 0 km/h
225 12-09-2011 20:55:02 20.1 C 10.26 g/m*3 20.1 C 0 km/h
Sensor: Nr:Datum:Temp:Abs-Feuchte:Windchill:Wind:
Aussen-T/F 226 12-09-2011 21:07:02 19.8 C 10.42 g/m*3 19.8 C 0 km/h
227 12-09-2011 21:19:02 19.7 C 10.53 g/m*3 19.7 C 0 km/h
228 12-09-2011 21:31:02 19.4 C 10.51 g/m*3 19.4 C 0 km/h
229 12-09-2011 21:43:02 19.3 C 10.62 g/m*3 19.3 C 0 km/h
230 12-09-2011 21:55:02 19.5 C 10.57 g/m*3 19.5 C 0 km/h
231 12-09-2011 22:07:02 18.8 C 10.95 g/m*3 18.8 C 0 km/h
232 12-09-2011 22:19:02 19.4 C 10.84 g/m*3 19.4 C 0 km/h
233 12-09-2011 22:32:02 19.6 C 10.8 g/m*3 19.6 C 0 km/h
234 12-09-2011 22:44:02 19.6 C 10.8 g/m*3 19.6 C 0 km/h
235 12-09-2011 22:56:02 19.7 C 10.87 g/m*3 19.7 C 0 km/h
236 12-09-2011 23:08:03 19.5 C 10.91 g/m*3 19.5 C 0 km/h
237 12-09-2011 23:20:03 18.8 C 10.95 g/m*3 18.8 C 0 km/h
238 12-09-2011 23:32:03 18.4 C 11.17 g/m*3 18.4 C 0 km/h
239 12-09-2011 23:44:03 17.9 C 11.3 g/m*3 17.9 C 0 km/h
240 12-09-2011 23:56:03 17.5 C 11.48 g/m*3 17.5 C 0 km/h
241 13-09-2011 00:08:03 16.9 C 11.36 g/m*3 16.9 C 0 km/h
242 13-09-2011 00:20:03 16.9 C 11.65 g/m*3 16.9 C 0 km/h
243 13-09-2011 00:32:03 16.8 C 11.72 g/m*3 16.8 C 0 km/h
244 13-09-2011 00:44:03 16.5 C 11.65 g/m*3 16.5 C 0 km/h
245 13-09-2011 00:56:03 16.4 C 11.58 g/m*3 16.4 C 0 km/h
246 13-09-2011 01:08:03 16.4 C 11.72 g/m*3 16.4 C 0 km/h
247 13-09-2011 01:20:03 16.6 C 12.01 g/m*3 16.6 C 0 km/h
248 13-09-2011 01:32:03 16.5 C 11.8 g/m*3 16.5 C 0 km/h
249 13-09-2011 01:44:03 16.4 C 11.72 g/m*3 16.4 C 0 km/h
250 13-09-2011 01:56:03 16.3 C 11.79 g/m*3 16.3 C 0 km/h
Sensor: Nr:Datum:Temp:Abs-Feuchte:Windchill:Wind:
Aussen-T/F 251 13-09-2011 02:08:04 16.6 C 12.01 g/m*3 16.6 C 0 km/h
252 13-09-2011 02:20:04 16.7 C 11.94 g/m*3 16.7 C 0 km/h
253 13-09-2011 02:32:04 17.2 C 12.01 g/m*3 17.2 C 0 km/h
254 13-09-2011 02:44:04 17.1 C 11.65 g/m*3 17.1 C 0 km/h
255 13-09-2011 02:56:04 17.5 C 11.63 g/m*3 17.5 C 0 km/h
256 13-09-2011 03:08:04 17.8 C 11.69 g/m*3 17.8 C 0 km/h
257 13-09-2011 03:20:04 17.3 C 11.34 g/m*3 17.3 C 0 km/h
258 13-09-2011 03:32:04 17.7 C 11.77 g/m*3 17.7 C 0 km/h
259 13-09-2011 03:44:04 18.3 C 11.41 g/m*3 18.3 C 0 km/h
260 13-09-2011 03:56:04 17.5 C 11.33 g/m*3 17.5 C 0 km/h
261 13-09-2011 04:08:04 17.3 C 11.64 g/m*3 17.3 C 0 km/h
262 13-09-2011 04:20:04 17.5 C 11.93 g/m*3 17.5 C 0 km/h
263 13-09-2011 04:32:04 17.5 C 11.93 g/m*3 17.5 C 0 km/h
264 13-09-2011 04:44:04 17.4 C 11.86 g/m*3 17.4 C 0 km/h
265 13-09-2011 04:56:04 17.4 C 12 g/m*3 17.4 C 0 km/h
266 13-09-2011 05:08:04 17.3 C 12.08 g/m*3 17.3 C 0 km/h
267 13-09-2011 05:20:04 17.3 C 12.08 g/m*3 17.3 C 0 km/h
268 13-09-2011 05:32:04 17.3 C 12.08 g/m*3 17.3 C 0 km/h
269 13-09-2011 05:44:04 17.3 C 12.23 g/m*3 17.3 C 0 km/h
270 13-09-2011 05:56:04 17.4 C 12.3 g/m*3 17.4 C 0 km/h
271 13-09-2011 06:08:04 17.4 C 12.3 g/m*3 17.4 C 0 km/h
272 13-09-2011 06:20:04 17.6 C 12.3 g/m*3 17.6 C 0 km/h
273 13-09-2011 06:32:04 18 C 12.13 g/m*3 18 C 0 km/h
274 13-09-2011 06:44:05 18.3 C 11.88 g/m*3 18.3 C 0 km/h
275 13-09-2011 06:56:05 17.9 C 11.91 g/m*3 17.9 C 0 km/h
Sensor: Nr:Datum:Temp:Abs-Feuchte:Windchill:Wind:
Aussen-T/F 276 13-09-2011 07:08:05 17.4 C 12 g/m*3 17.4 C 0 km/h
277 13-09-2011 07:20:02 17.1 C 11.94 g/m*3 17.1 C 0 km/h
278 13-09-2011 07:32:01 17 C 12.01 g/m*3 17 C 0 km/h
279 13-09-2011 07:44:01 16.9 C 12.23 g/m*3 16.9 C 0 km/h
280 13-09-2011 07:56:02 16.7 C 12.08 g/m*3 16.7 C 0 km/h
281 13-09-2011 08:08:01 16.7 C 12.22 g/m*3 16.7 C 0 km/h
282 13-09-2011 08:20:02 16.8 C 12.3 g/m*3 16.8 C 0 km/h
283 13-09-2011 08:32:02 17.1 C 12.37 g/m*3 17.1 C 0 km/h
284 13-09-2011 08:44:02 16.9 C 12.23 g/m*3 16.9 C 0 km/h
285 13-09-2011 08:56:02 16.8 C 12.15 g/m*3 16.8 C 0 km/h
286 13-09-2011 09:08:03 17.7 C 12.98 g/m*3 17.7 C 0 km/h
287 13-09-2011 09:20:02 18.1 C 12.82 g/m*3 18.1 C 0 km/h
288 13-09-2011 09:32:02 18.3 C 12.66 g/m*3 18.3 C 0 km/h
289 13-09-2011 09:44:02 18.6 C 11.46 g/m*3 18.6 C 0 km/h
290 13-09-2011 09:56:01 18.5 C 10.92 g/m*3 18.5 C 0 km/h
291 13-09-2011 10:08:02 18.8 C 10.95 g/m*3 18.8 C 0 km/h
292 13-09-2011 10:20:01 18.9 C 10.37 g/m*3 18.9 C 0 km/h
293 13-09-2011 10:32:01 18.8 C 10.95 g/m*3 18.8 C 0 km/h
294 13-09-2011 10:44:01 18.5 C 10.28 g/m*3 18.5 C 0 km/h
295 13-09-2011 10:56:02 18.4 C 9.75 g/m*3 18.4 C 0 km/h
296 13-09-2011 11:08:03 18.4 C 9.44 g/m*3 18.4 C 0 km/h
297 13-09-2011 11:20:02 18.3 C 9.38 g/m*3 18.3 C 0 km/h
298 13-09-2011 11:32:03 18.4 C 9.28 g/m*3 18.4 C 0 km/h
299 13-09-2011 11:44:03 19 C 9.13 g/m*3 19 C 0 km/h
300 13-09-2011 11:56:02 19.1 C 9.02 g/m*3 19.1 C 0 km/h
Sensor: Nr:Datum:Temp:Abs-Feuchte:Windchill:Wind:
Aussen-T/F 301 13-09-2011 12:08:02 19.4 C 9.18 g/m*3 19.4 C 0 km/h
302 13-09-2011 12:20:03 19.4 C 9.18 g/m*3 19.4 C 0 km/h
303 13-09-2011 12:32:02 19.3 C 9.12 g/m*3 19.3 C 0 km/h
304 13-09-2011 12:44:02 19.7 C 9.68 g/m*3 19.7 C 0 km/h
305 13-09-2011 12:56:02 19.5 C 9.06 g/m*3 19.5 C 0 km/h
306 13-09-2011 13:08:01 19.4 C 9.18 g/m*3 19.4 C 0 km/h
307 13-09-2011 13:20:01 20.1 C 9.04 g/m*3 20.1 C 0 km/h
308 13-09-2011 13:32:01 21.5 C 9.43 g/m*3 21.5 C 0 km/h
309 13-09-2011 13:44:01 21 C 9.16 g/m*3 21 C 0 km/h
310 13-09-2011 13:56:02 20.7 C 9 g/m*3 20.7 C 0 km/h
311 13-09-2011 14:08:01 20.5 C 9.07 g/m*3 20.5 C 0 km/h
312 13-09-2011 14:20:02 20.1 C 9.21 g/m*3 20.1 C 0 km/h
313 13-09-2011 14:32:02 20.2 C 9.62 g/m*3 20.2 C 0 km/h
314 13-09-2011 14:44:02 20 C 9.16 g/m*3 20 C 0 km/h
315 13-09-2011 14:56:02 20.3 C 9.15 g/m*3 20.3 C 0 km/h
316 13-09-2011 15:08:02 20.4 C 9.38 g/m*3 20.4 C 0 km/h
317 13-09-2011 15:20:02 20.9 C 9.65 g/m*3 20.9 C 0 km/h
318 13-09-2011 15:32:02 21 C 8.06 g/m*3 21 C 0 km/h
319 13-09-2011 15:44:02 20.7 C 8.28 g/m*3 20.7 C 0 km/h
320 13-09-2011 15:56:01 22.4 C 7.94 g/m*3 22.4 C 0 km/h
321 13-09-2011 16:08:01 21.2 C 7.97 g/m*3 21.2 C 0 km/h
322 13-09-2011 16:20:01 20.3 C 8.27 g/m*3 20.3 C 0 km/h
323 13-09-2011 16:32:01 20.5 C 8.19 g/m*3 20.5 C 0 km/h
324 13-09-2011 16:44:01 20.7 C 7.92 g/m*3 20.7 C 0 km/h
325 13-09-2011 16:56:02 21.2 C 8.9 g/m*3 21.2 C 0 km/h
Sensor: Nr:Datum:Temp:Abs-Feuchte:Windchill:Wind:
Aussen-T/F 326 13-09-2011 17:08:02 22 C 7.57 g/m*3 22 C 0 km/h
327 13-09-2011 17:20:03 24.2 C 7.04 g/m*3 24.2 C 0 km/h
328 13-09-2011 17:32:02 22 C 7.57 g/m*3 22 C 0 km/h
329 13-09-2011 17:44:02 20.6 C 7.7 g/m*3 20.6 C 0 km/h
330 13-09-2011 17:56:03 20.2 C 7.69 g/m*3 20.2 C 0 km/h
331 13-09-2011 18:08:02 20.2 C 7.87 g/m*3 20.2 C 0 km/h
332 13-09-2011 18:20:02 23.2 C 7.48 g/m*3 23.2 C 0 km/h
333 13-09-2011 18:32:03 22.9 C 7.36 g/m*3 22.9 C 0 km/h
334 13-09-2011 18:44:03 21.2 C 7.6 g/m*3 21.2 C 0 km/h
335 13-09-2011 18:56:02 20.9 C 7.83 g/m*3 20.9 C 0 km/h
336 13-09-2011 19:08:02 20.7 C 7.56 g/m*3 20.7 C 0 km/h
337 13-09-2011 19:20:02 19.2 C 7.59 g/m*3 19.2 C 0 km/h
338 13-09-2011 19:32:02 18.2 C 7.77 g/m*3 18.2 C 0 km/h
339 13-09-2011 19:44:02 17.4 C 8.6 g/m*3 17.4 C 0 km/h
340 13-09-2011 19:56:01 17.3 C 7.96 g/m*3 17.3 C 0 km/h
341 13-09-2011 20:08:02 16.4 C 8.37 g/m*3 16.4 C 0 km/h
342 13-09-2011 20:20:01 16.1 C 8.77 g/m*3 16.1 C 0 km/h
343 13-09-2011 20:32:02 16.1 C 8.77 g/m*3 16.1 C 0 km/h
344 13-09-2011 20:44:02 16 C 8.86 g/m*3 16 C 0 km/h
345 13-09-2011 20:56:01 16 C 8.99 g/m*3 16 C 0 km/h
346 13-09-2011 21:08:02 15.9 C 9.21 g/m*3 15.9 C 0 km/h
347 13-09-2011 21:20:02 15.9 C 9.21 g/m*3 15.9 C 0 km/h
348 13-09-2011 21:32:01 15.7 C 8.7 g/m*3 15.7 C 0 km/h
349 13-09-2011 21:44:01 15.1 C 8.77 g/m*3 15.1 C 0 km/h
350 13-09-2011 21:56:02 14.6 C 8.63 g/m*3 14.6 C 0 km/h
Sensor: Nr:Datum:Temp:Abs-Feuchte:Windchill:Wind:
Aussen-T/F 351 13-09-2011 22:09:02 14.3 C 8.72 g/m*3 14.3 C 0 km/h
352 13-09-2011 22:21:02 14 C 8.81 g/m*3 14 C 0 km/h
353 13-09-2011 22:33:02 13.5 C 8.77 g/m*3 13.5 C 0 km/h
354 13-09-2011 22:45:02 13.3 C 8.78 g/m*3 13.3 C 0 km/h
355 13-09-2011 22:57:02 13.3 C 9.01 g/m*3 13.3 C 0 km/h
356 13-09-2011 23:09:02 13 C 8.85 g/m*3 13 C 0 km/h
357 13-09-2011 23:21:02 12.9 C 9.02 g/m*3 12.9 C 0 km/h
358 13-09-2011 23:33:02 12.9 C 9.02 g/m*3 12.9 C 0 km/h
359 13-09-2011 23:45:02 12.8 C 9.07 g/m*3 12.8 C 0 km/h
360 13-09-2011 23:57:03 12.7 C 9.02 g/m*3 12.7 C 0 km/h
361 14-09-2011 00:09:03 12.8 C 9.07 g/m*3 12.8 C 0 km/h
362 14-09-2011 00:21:03 12.8 C 8.96 g/m*3 12.8 C 0 km/h
363 14-09-2011 00:33:03 12.7 C 8.91 g/m*3 12.7 C 0 km/h
364 14-09-2011 00:45:03 12.5 C 8.91 g/m*3 12.5 C 0 km/h
365 14-09-2011 00:57:03 12.5 C 9.13 g/m*3 12.5 C 0 km/h
366 14-09-2011 01:09:03 12.4 C 9.07 g/m*3 12.4 C 0 km/h
367 14-09-2011 01:21:03 12.7 C 9.35 g/m*3 12.7 C 0 km/h
368 14-09-2011 01:33:03 13 C 9.41 g/m*3 13 C 0 km/h
369 14-09-2011 01:45:03 13.1 C 9.24 g/m*3 13.1 C 0 km/h
370 14-09-2011 01:57:03 13.1 C 9.01 g/m*3 13.1 C 0 km/h
371 14-09-2011 02:09:03 12.8 C 8.85 g/m*3 12.8 C 0 km/h
372 14-09-2011 02:21:03 12.4 C 8.74 g/m*3 12.4 C 0 km/h
373 14-09-2011 02:33:03 12 C 8.74 g/m*3 12 C 0 km/h
374 14-09-2011 02:45:03 11.8 C 8.84 g/m*3 11.8 C 0 km/h
375 14-09-2011 02:57:03 11.6 C 8.73 g/m*3 11.6 C 0 km/h
Sensor: Nr:Datum:Temp:Abs-Feuchte:Windchill:Wind:
Aussen-T/F 376 14-09-2011 03:09:03 11.5 C 8.78 g/m*3 11.5 C 0 km/h
377 14-09-2011 03:21:03 10.8 C 8.4 g/m*3 10.8 C 0 km/h
378 14-09-2011 03:33:03 10.9 C 8.55 g/m*3 10.9 C 0 km/h
379 14-09-2011 03:45:03 10.9 C 8.55 g/m*3 10.9 C 0 km/h
380 14-09-2011 03:57:03 11 C 8.61 g/m*3 11 C 0 km/h
381 14-09-2011 04:09:03 11.8 C 8.74 g/m*3 11.8 C 0 km/h
382 14-09-2011 04:21:03 12.1 C 7.94 g/m*3 12.1 C 0 km/h
383 14-09-2011 04:33:04 11.7 C 7.64 g/m*3 11.7 C 0 km/h
384 14-09-2011 04:45:04 11.5 C 7.54 g/m*3 11.5 C 0 km/h
385 14-09-2011 04:57:04 11.6 C 7.59 g/m*3 11.6 C 0 km/h
386 14-09-2011 05:09:04 11.5 C 7.64 g/m*3 11.5 C 0 km/h
387 14-09-2011 05:21:04 11 C 7.51 g/m*3 11 C 0 km/h
388 14-09-2011 05:33:04 10.4 C 7.61 g/m*3 10.4 C 0 km/h
389 14-09-2011 05:45:04 10.1 C 7.56 g/m*3 10.1 C 0 km/h
390 14-09-2011 05:57:04 9.9 C 7.66 g/m*3 9.9 C 0 km/h
391 14-09-2011 06:09:04 9.8 C 7.7 g/m*3 9.8 C 0 km/h
392 14-09-2011 06:21:04 9.7 C 7.65 g/m*3 9.7 C 0 km/h
393 14-09-2011 06:33:02 9.6 C 7.69 g/m*3 9.6 C 0 km/h
394 14-09-2011 06:45:02 9.5 C 7.65 g/m*3 9.5 C 0 km/h
395 14-09-2011 06:57:02 9.3 C 7.64 g/m*3 9.3 C 0 km/h
396 14-09-2011 07:09:02 9.3 C 7.64 g/m*3 9.3 C 0 km/h
397 14-09-2011 07:21:02 9.5 C 7.74 g/m*3 9.5 C 0 km/h
398 14-09-2011 07:33:02 9.7 C 7.84 g/m*3 9.7 C 0 km/h
399 14-09-2011 07:45:01 10.1 C 7.75 g/m*3 10.1 C 0 km/h
400 14-09-2011 07:57:01 10.5 C 7.66 g/m*3 10.5 C 0 km/h
Sensor: Nr:Datum:Temp:Abs-Feuchte:Windchill:Wind:
Aussen-T/F 401 14-09-2011 08:09:02 10.6 C 7.52 g/m*3 10.6 C 0 km/h
402 14-09-2011 08:21:01 10.8 C 7.51 g/m*3 10.8 C 0 km/h
403 14-09-2011 08:33:01 11 C 7.61 g/m*3 11 C 0 km/h
404 14-09-2011 08:45:01 11.4 C 7.6 g/m*3 11.4 C 0 km/h
405 14-09-2011 08:57:01 11.5 C 7.54 g/m*3 11.5 C 0 km/h
406 14-09-2011 09:09:02 11.5 C 7.33 g/m*3 11.5 C 0 km/h
407 14-09-2011 09:21:01 11.7 C 7.32 g/m*3 11.7 C 0 km/h
408 14-09-2011 09:33:01 11.9 C 7.2 g/m*3 11.9 C 0 km/h
409 14-09-2011 09:45:02 12.2 C 7.01 g/m*3 12.2 C 0 km/h
410 14-09-2011 09:57:02 12.2 C 7.01 g/m*3 12.2 C 0 km/h
411 14-09-2011 10:09:02 12.6 C 6.97 g/m*3 12.6 C 0 km/h
412 14-09-2011 10:21:01 12.8 C 7.06 g/m*3 12.8 C 0 km/h
413 14-09-2011 10:33:02 13 C 6.92 g/m*3 13 C 0 km/h
414 14-09-2011 10:45:01 13.3 C 6.82 g/m*3 13.3 C 0 km/h
415 14-09-2011 10:57:01 13.4 C 6.86 g/m*3 13.4 C 0 km/h
416 14-09-2011 11:09:02 13.7 C 6.75 g/m*3 13.7 C 0 km/h
417 14-09-2011 11:21:02 14.1 C 6.67 g/m*3 14.1 C 0 km/h
418 14-09-2011 11:33:02 14.3 C 6.76 g/m*3 14.3 C 0 km/h
419 14-09-2011 11:45:02 14.5 C 6.34 g/m*3 14.5 C 0 km/h
420 14-09-2011 11:57:02 14.6 C 6.26 g/m*3 14.6 C 0 km/h
421 14-09-2011 12:09:01 15 C 5.9 g/m*3 15 C 0 km/h
422 14-09-2011 12:21:02 15.4 C 6.04 g/m*3 15.4 C 0 km/h
423 14-09-2011 12:33:01 15.3 C 6.27 g/m*3 15.3 C 0 km/h
424 14-09-2011 12:45:01 16 C 6.4 g/m*3 16 C 0 km/h
425 14-09-2011 12:57:02 16 C 6.13 g/m*3 16 C 0 km/h
Sensor: Nr:Datum:Temp:Abs-Feuchte:Windchill:Wind:
Aussen-T/F 426 14-09-2011 13:09:01 16.5 C 6.18 g/m*3 16.5 C 0 km/h
427 14-09-2011 13:21:01 16.9 C 6.47 g/m*3 16.9 C 0 km/h
428 14-09-2011 13:33:02 17 C 6.08 g/m*3 17 C 0 km/h
429 14-09-2011 13:45:02 18.3 C 6.25 g/m*3 18.3 C 0 km/h
430 14-09-2011 13:57:02 18.7 C 6.08 g/m*3 18.7 C 0 km/h
431 14-09-2011 14:09:02 18.4 C 5.98 g/m*3 18.4 C 0 km/h
432 14-09-2011 14:21:01 18.2 C 5.91 g/m*3 18.2 C 0 km/h
433 14-09-2011 14:33:02 18.5 C 5.85 g/m*3 18.5 C 0 km/h
434 14-09-2011 14:45:01 19.1 C 5.9 g/m*3 19.1 C 0 km/h
435 14-09-2011 14:57:01 19.7 C 6.11 g/m*3 19.7 C 0 km/h
436 14-09-2011 15:09:02 18.9 C 5.83 g/m*3 18.9 C 0 km/h
437 14-09-2011 15:21:02 22.5 C 5.59 g/m*3 22.5 C 0 km/h
438 14-09-2011 15:33:02 22.1 C 5.27 g/m*3 22.1 C 0 km/h
439 14-09-2011 15:45:02 22.2 C 4.91 g/m*3 22.2 C 0 km/h
440 14-09-2011 15:57:02 22.1 C 5.08 g/m*3 22.1 C 0 km/h
441 14-09-2011 16:09:02 23.3 C 5.23 g/m*3 23.3 C 0 km/h
442 14-09-2011 16:21:02 23.4 C 5.26 g/m*3 23.4 C 0 km/h
443 14-09-2011 16:33:01 24 C 5 g/m*3 24 C 0 km/h
444 14-09-2011 16:45:02 22.8 C 5.08 g/m*3 22.8 C 0 km/h
445 14-09-2011 16:57:02 24.1 C 5.03 g/m*3 24.1 C 0 km/h
446 14-09-2011 17:09:01 24.4 C 5.34 g/m*3 24.4 C 0 km/h
447 14-09-2011 17:21:01 20.7 C 5.94 g/m*3 20.7 C 0 km/h
448 14-09-2011 17:33:02 22.1 C 5.27 g/m*3 22.1 C 0 km/h
449 14-09-2011 17:45:02 21.1 C 4.97 g/m*3 21.1 C 0 km/h
450 14-09-2011 17:57:02 22.9 C 4.7 g/m*3 22.9 C 0 km/h
Sensor: Nr:Datum:Temp:Abs-Feuchte:Windchill:Wind:
Aussen-T/F 451 14-09-2011 18:09:02 21 C 4.58 g/m*3 21 C 0 km/h
452 14-09-2011 18:21:02 19.1 C 5.25 g/m*3 19.1 C 0 km/h
453 14-09-2011 18:33:02 18.3 C 5.32 g/m*3 18.3 C 0 km/h
454 14-09-2011 18:45:02 17.8 C 5.46 g/m*3 17.8 C 0 km/h
455 14-09-2011 18:57:02 16.4 C 6.42 g/m*3 16.4 C 0 km/h
456 14-09-2011 19:09:02 15.9 C 6.64 g/m*3 15.9 C 0 km/h
457 14-09-2011 19:21:02 16.6 C 5.79 g/m*3 16.6 C 0 km/h
458 14-09-2011 19:33:02 16.1 C 6.03 g/m*3 16.1 C 0 km/h
459 14-09-2011 19:45:01 15.3 C 6.66 g/m*3 15.3 C 0 km/h
460 14-09-2011 19:57:01 14.1 C 6.8 g/m*3 14.1 C 0 km/h
461 14-09-2011 20:09:02 13.6 C 6.94 g/m*3 13.6 C 0 km/h
462 14-09-2011 20:21:02 13.4 C 6.86 g/m*3 13.4 C 0 km/h
463 14-09-2011 20:33:02 13.1 C 6.85 g/m*3 13.1 C 0 km/h
464 14-09-2011 20:45:02 12.8 C 6.94 g/m*3 12.8 C 0 km/h
465 14-09-2011 20:57:02 12.7 C 6.79 g/m*3 12.7 C 0 km/h
466 14-09-2011 21:09:01 12.7 C 6.9 g/m*3 12.7 C 0 km/h
467 14-09-2011 21:21:02 12.7 C 7.12 g/m*3 12.7 C 0 km/h
468 14-09-2011 21:33:01 13 C 7.14 g/m*3 13 C 0 km/h
469 14-09-2011 21:45:02 13.7 C 6.87 g/m*3 13.7 C 0 km/h
470 14-09-2011 21:57:02 13.4 C 7.09 g/m*3 13.4 C 0 km/h
471 14-09-2011 22:10:02 13.1 C 7.3 g/m*3 13.1 C 0 km/h
472 14-09-2011 22:22:02 13.4 C 7.32 g/m*3 13.4 C 0 km/h
473 14-09-2011 22:34:02 13.4 C 7.44 g/m*3 13.4 C 0 km/h
474 14-09-2011 22:46:02 13.2 C 7.46 g/m*3 13.2 C 0 km/h
475 14-09-2011 22:58:03 13.7 C 7.46 g/m*3 13.7 C 0 km/h
Sensor: Nr:Datum:Temp:Abs-Feuchte:Windchill:Wind:
Aussen-T/F 476 14-09-2011 23:10:03 13.7 C 7.22 g/m*3 13.7 C 0 km/h
477 14-09-2011 23:22:03 13.6 C 7.53 g/m*3 13.6 C 0 km/h
478 14-09-2011 23:34:03 13.6 C 7.3 g/m*3 13.6 C 0 km/h
479 14-09-2011 23:46:03 12.8 C 7.5 g/m*3 12.8 C 0 km/h
480 14-09-2011 23:58:03 11.9 C 7.31 g/m*3 11.9 C 0 km/h
481 15-09-2011 00:10:03 11.4 C 7.39 g/m*3 11.4 C 0 km/h
482 15-09-2011 00:22:03 10.7 C 7.37 g/m*3 10.7 C 0 km/h
483 15-09-2011 00:34:03 10.5 C 7.47 g/m*3 10.5 C 0 km/h
484 15-09-2011 00:46:03 10.6 C 7.71 g/m*3 10.6 C 0 km/h
485 15-09-2011 00:58:03 11.2 C 8.01 g/m*3 11.2 C 0 km/h
486 15-09-2011 01:10:03 11.9 C 8.15 g/m*3 11.9 C 0 km/h
487 15-09-2011 01:22:03 12.4 C 8.09 g/m*3 12.4 C 0 km/h
488 15-09-2011 01:34:03 13 C 7.83 g/m*3 13 C 0 km/h
489 15-09-2011 01:46:03 13.5 C 7.72 g/m*3 13.5 C 0 km/h
490 15-09-2011 01:58:03 13.4 C 7.67 g/m*3 13.4 C 0 km/h
491 15-09-2011 02:10:03 13.2 C 7.46 g/m*3 13.2 C 0 km/h
492 15-09-2011 02:22:03 13 C 7.71 g/m*3 13 C 0 km/h
493 15-09-2011 02:34:03 12.8 C 7.73 g/m*3 12.8 C 0 km/h
494 15-09-2011 02:46:03 12.5 C 7.7 g/m*3 12.5 C 0 km/h
495 15-09-2011 02:58:03 12.1 C 7.83 g/m*3 12.1 C 0 km/h
496 15-09-2011 03:10:04 11.7 C 7.95 g/m*3 11.7 C 0 km/h
497 15-09-2011 03:22:04 11.1 C 7.76 g/m*3 11.1 C 0 km/h
498 15-09-2011 03:34:04 10.8 C 7.91 g/m*3 10.8 C 0 km/h
499 15-09-2011 03:46:04 10.7 C 7.96 g/m*3 10.7 C 0 km/h
500 15-09-2011 03:58:04 10.8 C 8.11 g/m*3 10.8 C 0 km/h
Sensor: Nr:Datum:Temp:Abs-Feuchte:Windchill:Wind:
Aussen-T/F 501 15-09-2011 04:10:04 10.1 C 7.75 g/m*3 10.1 C 0 km/h
502 15-09-2011 04:22:04 10.2 C 7.9 g/m*3 10.2 C 0 km/h
503 15-09-2011 04:34:04 10.9 C 8.36 g/m*3 10.9 C 0 km/h
504 15-09-2011 04:46:04 11.7 C 8.68 g/m*3 11.7 C 0 km/h
505 15-09-2011 04:58:04 11.1 C 7.96 g/m*3 11.1 C 0 km/h
506 15-09-2011 05:10:04 10.1 C 7.47 g/m*3 10.1 C 0 km/h
507 15-09-2011 05:22:04 9.8 C 7.7 g/m*3 9.8 C 0 km/h
508 15-09-2011 05:34:04 9.6 C 7.69 g/m*3 9.6 C 0 km/h
509 15-09-2011 05:46:04 9.5 C 7.65 g/m*3 9.5 C 0 km/h
510 15-09-2011 05:58:04 9.4 C 7.69 g/m*3 9.4 C 0 km/h
511 15-09-2011 06:10:04 8.9 C 7.53 g/m*3 8.9 C 0 km/h
512 15-09-2011 06:22:04 8.9 C 7.62 g/m*3 8.9 C 0 km/h
513 15-09-2011 06:34:02 8.9 C 7.71 g/m*3 8.9 C 0 km/h
514 15-09-2011 06:46:01 9.2 C 7.77 g/m*3 9.2 C 0 km/h
515 15-09-2011 06:58:01 9.1 C 7.72 g/m*3 9.1 C 0 km/h
516 15-09-2011 07:10:02 9.1 C 7.72 g/m*3 9.1 C 0 km/h
517 15-09-2011 07:22:01 9.5 C 8.01 g/m*3 9.5 C 0 km/h
518 15-09-2011 07:34:01 9.7 C 8.11 g/m*3 9.7 C 0 km/h
519 15-09-2011 07:46:01 9.7 C 8.02 g/m*3 9.7 C 0 km/h
520 15-09-2011 07:58:01 9.4 C 7.78 g/m*3 9.4 C 0 km/h
521 15-09-2011 08:10:02 9.3 C 7.73 g/m*3 9.3 C 0 km/h
522 15-09-2011 08:22:02 9.4 C 7.78 g/m*3 9.4 C 0 km/h
523 15-09-2011 08:34:01 9.5 C 7.83 g/m*3 9.5 C 0 km/h
524 15-09-2011 08:46:02 9.6 C 7.88 g/m*3 9.6 C 0 km/h
525 15-09-2011 08:58:02 9.5 C 7.83 g/m*3 9.5 C 0 km/h
Sensor: Nr:Datum:Temp:Abs-Feuchte:Windchill:Wind:
Aussen-T/F 526 15-09-2011 09:10:01 9.5 C 7.83 g/m*3 9.5 C 0 km/h
527 15-09-2011 09:22:02 9.3 C 7.73 g/m*3 9.3 C 0 km/h
528 15-09-2011 09:34:01 9.8 C 8.07 g/m*3 9.8 C 0 km/h
529 15-09-2011 09:46:02 10.1 C 8.13 g/m*3 10.1 C 0 km/h
530 15-09-2011 09:58:02 10.2 C 8.18 g/m*3 10.2 C 0 km/h
531 15-09-2011 10:10:02 10.5 C 8.44 g/m*3 10.5 C 0 km/h
532 15-09-2011 10:22:02 11.2 C 8.72 g/m*3 11.2 C 0 km/h
533 15-09-2011 10:34:02 11.4 C 8.72 g/m*3 11.4 C 0 km/h
534 15-09-2011 10:46:02 11.5 C 8.88 g/m*3 11.5 C 0 km/h
535 15-09-2011 10:58:02 11.7 C 8.89 g/m*3 11.7 C 0 km/h
536 15-09-2011 11:10:02 12 C 9.06 g/m*3 12 C 0 km/h
537 15-09-2011 11:22:01 12.6 C 8.96 g/m*3 12.6 C 0 km/h
538 15-09-2011 11:34:02 12.9 C 9.02 g/m*3 12.9 C 0 km/h
539 15-09-2011 11:46:02 13.5 C 8.54 g/m*3 13.5 C 0 km/h
540 15-09-2011 11:58:02 14.3 C 7.99 g/m*3 14.3 C 0 km/h
541 15-09-2011 12:10:02 14.4 C 7.79 g/m*3 14.4 C 0 km/h
542 15-09-2011 12:22:01 14.6 C 7.63 g/m*3 14.6 C 0 km/h
543 15-09-2011 12:34:02 14.8 C 7.98 g/m*3 14.8 C 0 km/h
544 15-09-2011 12:46:01 15 C 7.95 g/m*3 15 C 0 km/h
545 15-09-2011 12:58:01 16 C 7.49 g/m*3 16 C 0 km/h
546 15-09-2011 13:10:02 16.8 C 7.01 g/m*3 16.8 C 0 km/h
547 15-09-2011 13:22:02 16.7 C 6.68 g/m*3 16.7 C 0 km/h
548 15-09-2011 13:34:02 17.2 C 6.88 g/m*3 17.2 C 0 km/h
549 15-09-2011 13:46:02 18.5 C 6.96 g/m*3 18.5 C 0 km/h
550 15-09-2011 13:58:02 20 C 6.39 g/m*3 20 C 0 km/h
Sensor: Nr:Datum:Temp:Abs-Feuchte:Windchill:Wind:
Aussen-T/F 551 15-09-2011 14:10:01 19 C 6.36 g/m*3 19 C 0 km/h
552 15-09-2011 14:22:02 18.9 C 6.48 g/m*3 18.9 C 0 km/h
553 15-09-2011 14:34:01 19.5 C 6.21 g/m*3 19.5 C 0 km/h
554 15-09-2011 14:46:02 19.3 C 5.97 g/m*3 19.3 C 0 km/h
555 15-09-2011 14:58:03 19.4 C 6.34 g/m*3 19.4 C 0 km/h
556 15-09-2011 15:10:02 19.9 C 6.19 g/m*3 19.9 C 0 km/h
557 15-09-2011 15:22:02 21.8 C 6.33 g/m*3 21.8 C 0 km/h
558 15-09-2011 15:34:03 22.6 C 6.03 g/m*3 22.6 C 0 km/h
559 15-09-2011 15:46:02 24.8 C 6.15 g/m*3 24.8 C 0 km/h
560 15-09-2011 15:58:02 26.1 C 5.39 g/m*3 26.1 C 0 km/h
561 15-09-2011 16:10:02 25.5 C 5.21 g/m*3 25.5 C 0 km/h
562 15-09-2011 16:22:01 26.4 C 5.48 g/m*3 26.4 C 0 km/h
563 15-09-2011 16:34:02 24.5 C 5.15 g/m*3 24.5 C 0 km/h
564 15-09-2011 16:46:02 24.6 C 4.95 g/m*3 24.6 C 0 km/h
565 15-09-2011 16:58:02 26.2 C 5.91 g/m*3 26.2 C 0 km/h
566 15-09-2011 17:10:02 26.6 C 5.29 g/m*3 26.6 C 0 km/h
567 15-09-2011 17:22:01 26.3 C 5.2 g/m*3 26.3 C 0 km/h
568 15-09-2011 17:34:02 24.3 C 5.09 g/m*3 24.3 C 0 km/h
569 15-09-2011 17:46:01 24.4 C 5.56 g/m*3 24.4 C 0 km/h
570 15-09-2011 17:58:01 24.7 C 5.66 g/m*3 24.7 C 0 km/h
571 15-09-2011 18:10:02 24 C 5.66 g/m*3 24 C 0 km/h
572 15-09-2011 18:22:02 22.9 C 6.74 g/m*3 22.9 C 0 km/h
573 15-09-2011 18:34:02 20.5 C 7.65 g/m*3 20.5 C 0 km/h
574 15-09-2011 18:46:02 19.5 C 7.38 g/m*3 19.5 C 0 km/h
575 15-09-2011 18:58:02 17.2 C 7.32 g/m*3 17.2 C 0 km/h
Sensor: Nr:Datum:Temp:Abs-Feuchte:Windchill:Wind:
Aussen-T/F 576 15-09-2011 19:10:01 16.2 C 7.17 g/m*3 16.2 C 0 km/h
577 15-09-2011 19:22:02 15.2 C 7.4 g/m*3 15.2 C 0 km/h
578 15-09-2011 19:34:02 14.6 C 7.51 g/m*3 14.6 C 0 km/h
579 15-09-2011 19:46:02 14.1 C 7.4 g/m*3 14.1 C 0 km/h
580 15-09-2011 19:58:02 14 C 7.6 g/m*3 14 C 0 km/h
581 15-09-2011 20:10:02 13.8 C 7.51 g/m*3 13.8 C 0 km/h
582 15-09-2011 20:22:02 13.3 C 7.63 g/m*3 13.3 C 0 km/h
583 15-09-2011 20:34:02 12.4 C 7.54 g/m*3 12.4 C 0 km/h
584 15-09-2011 20:46:01 12.5 C 8.03 g/m*3 12.5 C 0 km/h
585 15-09-2011 20:58:01 11.9 C 7.73 g/m*3 11.9 C 0 km/h
586 15-09-2011 21:10:02 11.2 C 7.4 g/m*3 11.2 C 0 km/h
587 15-09-2011 21:22:01 11 C 7.41 g/m*3 11 C 0 km/h
588 15-09-2011 21:34:02 11.2 C 7.8 g/m*3 11.2 C 0 km/h
589 15-09-2011 21:46:01 11.1 C 7.96 g/m*3 11.1 C 0 km/h
590 15-09-2011 21:58:01 10.5 C 7.66 g/m*3 10.5 C 0 km/h
591 15-09-2011 22:10:02 10.4 C 7.61 g/m*3 10.4 C 0 km/h
592 15-09-2011 22:22:01 10.3 C 7.57 g/m*3 10.3 C 0 km/h
593 15-09-2011 22:34:02 10 C 7.52 g/m*3 10 C 0 km/h
594 15-09-2011 22:46:01 9.5 C 7.37 g/m*3 9.5 C 0 km/h
595 15-09-2011 22:58:01 9.6 C 7.51 g/m*3 9.6 C 0 km/h
596 15-09-2011 23:10:02 9.1 C 7.28 g/m*3 9.1 C 0 km/h
597 15-09-2011 23:22:02 9.2 C 7.5 g/m*3 9.2 C 0 km/h
598 15-09-2011 23:34:02 8.9 C 7.36 g/m*3 8.9 C 0 km/h
599 15-09-2011 23:46:02 8.6 C 7.22 g/m*3 8.6 C 0 km/h
600 15-09-2011 23:58:02 8.5 C 7.26 g/m*3 8.5 C 0 km/h
Sensor: Nr:Datum:Temp:Abs-Feuchte:Windchill:Wind:
Aussen-T/F 601 16-09-2011 00:10:02 8.2 C 7.12 g/m*3 8.2 C 0 km/h
602 16-09-2011 00:22:02 8.6 C 7.39 g/m*3 8.6 C 0 km/h
603 16-09-2011 00:34:01 8.1 C 7.16 g/m*3 8.1 C 0 km/h
604 16-09-2011 00:46:02 7.9 C 7.15 g/m*3 7.9 C 0 km/h
605 16-09-2011 00:58:02 8.4 C 7.38 g/m*3 8.4 C 0 km/h
606 16-09-2011 01:10:01 7.8 C 7.18 g/m*3 7.8 C 0 km/h
607 16-09-2011 01:22:02 7.8 C 7.18 g/m*3 7.8 C 0 km/h
608 16-09-2011 01:34:02 7.7 C 7.14 g/m*3 7.7 C 0 km/h
609 16-09-2011 01:46:02 7.5 C 7.04 g/m*3 7.5 C 0 km/h
610 16-09-2011 01:58:02 7.3 C 6.95 g/m*3 7.3 C 0 km/h
611 16-09-2011 02:10:02 7.8 C 7.18 g/m*3 7.8 C 0 km/h
612 16-09-2011 02:22:02 7.6 C 7.17 g/m*3 7.6 C 0 km/h
613 16-09-2011 02:34:02 7.1 C 6.94 g/m*3 7.1 C 0 km/h
614 16-09-2011 02:47:03 7.1 C 6.94 g/m*3 7.1 C 0 km/h
615 16-09-2011 02:59:03 7.5 C 7.12 g/m*3 7.5 C 0 km/h
616 16-09-2011 03:11:03 7.1 C 6.94 g/m*3 7.1 C 0 km/h
617 16-09-2011 03:23:03 6.8 C 6.81 g/m*3 6.8 C 0 km/h
618 16-09-2011 03:35:02 6.8 C 6.81 g/m*3 6.8 C 0 km/h
619 16-09-2011 03:47:02 6.8 C 6.81 g/m*3 6.8 C 0 km/h
620 16-09-2011 03:59:02 6.8 C 6.81 g/m*3 6.8 C 0 km/h
621 16-09-2011 04:11:01 6.6 C 6.72 g/m*3 6.6 C 0 km/h
622 16-09-2011 04:23:01 6.6 C 6.72 g/m*3 6.6 C 0 km/h
623 16-09-2011 04:35:02 6.6 C 6.79 g/m*3 6.6 C 0 km/h
624 16-09-2011 04:47:02 6.4 C 6.71 g/m*3 6.4 C 0 km/h
625 16-09-2011 04:59:02 6.4 C 6.63 g/m*3 6.4 C 0 km/h
Sensor: Nr:Datum:Temp:Abs-Feuchte:Windchill:Wind:
Aussen-T/F 626 16-09-2011 05:11:02 6.4 C 6.63 g/m*3 6.4 C 0 km/h
627 16-09-2011 05:23:02 6.3 C 6.66 g/m*3 6.3 C 0 km/h
628 16-09-2011 05:35:02 7.1 C 7.02 g/m*3 7.1 C 0 km/h
629 16-09-2011 05:47:02 7.6 C 7.25 g/m*3 7.6 C 0 km/h
630 16-09-2011 05:59:02 8 C 7.44 g/m*3 8 C 0 km/h
631 16-09-2011 06:11:02 8.1 C 7.49 g/m*3 8.1 C 0 km/h
632 16-09-2011 06:23:02 8.2 C 7.54 g/m*3 8.2 C 0 km/h
633 16-09-2011 06:35:02 8.2 C 7.54 g/m*3 8.2 C 0 km/h
634 16-09-2011 06:47:02 8.1 C 7.57 g/m*3 8.1 C 0 km/h
635 16-09-2011 06:59:02 8.1 C 7.57 g/m*3 8.1 C 0 km/h
636 16-09-2011 07:11:02 8.1 C 7.57 g/m*3 8.1 C 0 km/h
637 16-09-2011 07:23:02 8.1 C 7.57 g/m*3 8.1 C 0 km/h
638 16-09-2011 07:35:02 8.1 C 7.57 g/m*3 8.1 C 0 km/h
639 16-09-2011 07:47:02 8.2 C 7.62 g/m*3 8.2 C 0 km/h
640 16-09-2011 07:59:02 8.2 C 7.62 g/m*3 8.2 C 0 km/h
641 16-09-2011 08:11:01 8.4 C 7.72 g/m*3 8.4 C 0 km/h
642 16-09-2011 08:23:02 8.5 C 7.77 g/m*3 8.5 C 0 km/h
643 16-09-2011 08:35:02 8.6 C 7.82 g/m*3 8.6 C 0 km/h
644 16-09-2011 08:47:02 8.7 C 7.87 g/m*3 8.7 C 0 km/h
645 16-09-2011 08:59:02 8.7 C 7.87 g/m*3 8.7 C 0 km/h
646 16-09-2011 09:11:03 8.7 C 7.87 g/m*3 8.7 C 0 km/h
647 16-09-2011 09:23:02 9.1 C 7.99 g/m*3 9.1 C 0 km/h
648 16-09-2011 09:35:02 9.5 C 8.28 g/m*3 9.5 C 0 km/h
649 16-09-2011 09:47:01 9.8 C 8.44 g/m*3 9.8 C 0 km/h
650 16-09-2011 09:59:01 9.9 C 8.4 g/m*3 9.9 C 0 km/h
Sensor: Nr:Datum:Temp:Abs-Feuchte:Windchill:Wind:
Aussen-T/F 651 16-09-2011 10:11:01 10.4 C 8.58 g/m*3 10.4 C 0 km/h
652 16-09-2011 10:23:01 10.6 C 8.59 g/m*3 10.6 C 0 km/h
653 16-09-2011 10:35:01 10.7 C 8.55 g/m*3 10.7 C 0 km/h
654 16-09-2011 10:47:02 11 C 8.61 g/m*3 11 C 0 km/h
655 16-09-2011 10:59:02 11.2 C 8.72 g/m*3 11.2 C 0 km/h
656 16-09-2011 11:11:02 11.8 C 9.05 g/m*3 11.8 C 0 km/h
657 16-09-2011 11:23:03 12.4 C 9.29 g/m*3 12.4 C 0 km/h
658 16-09-2011 11:35:02 13 C 9.41 g/m*3 13 C 0 km/h
659 16-09-2011 11:47:02 13.5 C 9.71 g/m*3 13.5 C 0 km/h
660 16-09-2011 11:59:02 14.1 C 9.83 g/m*3 14.1 C 0 km/h
661 16-09-2011 12:11:02 15 C 9.87 g/m*3 15 C 0 km/h
662 16-09-2011 12:23:02 15.1 C 9.68 g/m*3 15.1 C 0 km/h
663 16-09-2011 12:35:01 15.6 C 9.84 g/m*3 15.6 C 0 km/h
664 16-09-2011 12:47:02 16.2 C 9.1 g/m*3 16.2 C 0 km/h
665 16-09-2011 12:59:02 17.5 C 8.65 g/m*3 17.5 C 0 km/h
666 16-09-2011 13:11:01 18 C 8.29 g/m*3 18 C 0 km/h
667 16-09-2011 13:23:01 18.8 C 8.37 g/m*3 18.8 C 0 km/h
668 16-09-2011 13:35:02 19.8 C 7.69 g/m*3 19.8 C 0 km/h
669 16-09-2011 13:47:02 21.5 C 7.17 g/m*3 21.5 C 0 km/h
670 16-09-2011 13:59:02 20 C 8.47 g/m*3 20 C 0 km/h
671 16-09-2011 14:11:02 21.3 C 8.02 g/m*3 21.3 C 0 km/h
672 16-09-2011 14:23:02 22 C 7.18 g/m*3 22 C 0 km/h
673 16-09-2011 14:35:02 22.9 C 6.95 g/m*3 22.9 C 0 km/h
674 16-09-2011 14:47:02 22.8 C 6.91 g/m*3 22.8 C 0 km/h
675 16-09-2011 14:59:02 22.5 C 7.39 g/m*3 22.5 C 0 km/h
Sensor: Nr:Datum:Temp:Abs-Feuchte:Windchill:Wind:
Aussen-T/F 676 16-09-2011 15:11:02 22.4 C 7.55 g/m*3 22.4 C 0 km/h
677 16-09-2011 15:23:01 22.9 C 7.56 g/m*3 22.9 C 0 km/h
678 16-09-2011 15:35:02 22.4 C 7.94 g/m*3 22.4 C 0 km/h
679 16-09-2011 15:47:01 22.1 C 8 g/m*3 22.1 C 0 km/h
680 16-09-2011 15:59:01 21.5 C 9.05 g/m*3 21.5 C 0 km/h
681 16-09-2011 16:11:02 21.6 C 8.35 g/m*3 21.6 C 0 km/h
682 16-09-2011 16:23:02 21.3 C 9.88 g/m*3 21.3 C 0 km/h
683 16-09-2011 16:35:02 20 C 9.51 g/m*3 20 C 0 km/h
684 16-09-2011 16:47:02 19 C 9.94 g/m*3 19 C 0 km/h
685 16-09-2011 16:59:02 17.9 C 10.08 g/m*3 17.9 C 0 km/h
686 16-09-2011 17:11:01 17 C 10.13 g/m*3 17 C 0 km/h
687 16-09-2011 17:23:02 16.6 C 10.45 g/m*3 16.6 C 0 km/h
688 16-09-2011 17:35:01 16.5 C 10.67 g/m*3 16.5 C 0 km/h
689 16-09-2011 17:47:01 16.5 C 10.53 g/m*3 16.5 C 0 km/h
690 16-09-2011 17:59:02 16 C 10.35 g/m*3 16 C 0 km/h
691 16-09-2011 18:11:01 15.7 C 10.84 g/m*3 15.7 C 0 km/h
692 16-09-2011 18:23:01 15.5 C 10.84 g/m*3 15.5 C 0 km/h
693 16-09-2011 18:35:02 15.6 C 11.04 g/m*3 15.6 C 0 km/h
694 16-09-2011 18:47:02 15.6 C 11.04 g/m*3 15.6 C 0 km/h
695 16-09-2011 18:59:02 15.6 C 11.17 g/m*3 15.6 C 0 km/h
696 16-09-2011 19:11:02 15.3 C 10.84 g/m*3 15.3 C 0 km/h
697 16-09-2011 19:23:01 14.9 C 10.71 g/m*3 14.9 C 0 km/h
698 16-09-2011 19:35:02 14.8 C 10.64 g/m*3 14.8 C 0 km/h
699 16-09-2011 19:47:02 14.8 C 10.77 g/m*3 14.8 C 0 km/h
700 16-09-2011 19:59:02 14.5 C 10.57 g/m*3 14.5 C 0 km/h
Sensor: Nr:Datum:Temp:Abs-Feuchte:Windchill:Wind:
Aussen-T/F 701 16-09-2011 20:11:02 14.5 C 10.57 g/m*3 14.5 C 0 km/h
702 16-09-2011 20:23:01 15 C 10.9 g/m*3 15 C 0 km/h
703 16-09-2011 20:35:02 15.3 C 10.97 g/m*3 15.3 C 0 km/h
704 16-09-2011 20:47:01 15.4 C 10.77 g/m*3 15.4 C 0 km/h
705 16-09-2011 20:59:01 15.2 C 10.51 g/m*3 15.2 C 0 km/h
706 16-09-2011 21:11:02 15 C 10.51 g/m*3 15 C 0 km/h
707 16-09-2011 21:23:02 14.9 C 10.58 g/m*3 14.9 C 0 km/h
708 16-09-2011 21:35:02 15 C 10.64 g/m*3 15 C 0 km/h
709 16-09-2011 21:47:02 14.9 C 10.71 g/m*3 14.9 C 0 km/h
710 16-09-2011 21:59:02 14.7 C 10.58 g/m*3 14.7 C 0 km/h
711 16-09-2011 22:11:01 14.6 C 10.51 g/m*3 14.6 C 0 km/h
712 16-09-2011 22:23:02 14.6 C 10.51 g/m*3 14.6 C 0 km/h
713 16-09-2011 22:35:01 14.6 C 10.64 g/m*3 14.6 C 0 km/h
714 16-09-2011 22:47:02 14.3 C 10.32 g/m*3 14.3 C 0 km/h
715 16-09-2011 22:59:02 14.2 C 10.26 g/m*3 14.2 C 0 km/h
716 16-09-2011 23:11:01 14 C 10.13 g/m*3 14 C 0 km/h
717 16-09-2011 23:23:01 13.9 C 10.19 g/m*3 13.9 C 0 km/h
718 16-09-2011 23:35:02 13.8 C 10.25 g/m*3 13.8 C 0 km/h
719 16-09-2011 23:47:02 14 C 10.25 g/m*3 14 C 0 km/h
720 16-09-2011 23:59:02 14 C 10.25 g/m*3 14 C 0 km/h
721 17-09-2011 00:11:02 13.7 C 10.18 g/m*3 13.7 C 0 km/h
722 17-09-2011 00:23:02 13.4 C 10 g/m*3 13.4 C 0 km/h
723 17-09-2011 00:35:02 13.6 C 10.24 g/m*3 13.6 C 0 km/h
724 17-09-2011 00:47:02 13.5 C 10.18 g/m*3 13.5 C 0 km/h
725 17-09-2011 00:59:02 12.9 C 9.92 g/m*3 12.9 C 0 km/h
Sensor: Nr:Datum:Temp:Abs-Feuchte:Windchill:Wind:
Aussen-T/F 726 17-09-2011 01:11:02 13.1 C 9.93 g/m*3 13.1 C 0 km/h
727 17-09-2011 01:23:02 13.4 C 10.23 g/m*3 13.4 C 0 km/h
728 17-09-2011 01:35:02 13.7 C 10.42 g/m*3 13.7 C 0 km/h
729 17-09-2011 01:47:01 13.5 C 10.29 g/m*3 13.5 C 0 km/h
730 17-09-2011 01:59:01 13.4 C 10.23 g/m*3 13.4 C 0 km/h
731 17-09-2011 02:11:01 13.4 C 10.23 g/m*3 13.4 C 0 km/h
732 17-09-2011 02:23:01 12.8 C 9.97 g/m*3 12.8 C 0 km/h
733 17-09-2011 02:35:01 12.9 C 10.03 g/m*3 12.9 C 0 km/h
734 17-09-2011 02:47:01 12.8 C 9.97 g/m*3 12.8 C 0 km/h
735 17-09-2011 02:59:01 12.7 C 9.91 g/m*3 12.7 C 0 km/h
736 17-09-2011 03:11:01 12.5 C 9.78 g/m*3 12.5 C 0 km/h
737 17-09-2011 03:23:01 12.6 C 9.85 g/m*3 12.6 C 0 km/h
738 17-09-2011 03:35:01 12.5 C 9.78 g/m*3 12.5 C 0 km/h
739 17-09-2011 03:47:01 12.1 C 9.54 g/m*3 12.1 C 0 km/h
740 17-09-2011 03:59:01 12 C 9.48 g/m*3 12 C 0 km/h
741 17-09-2011 04:11:01 12 C 9.48 g/m*3 12 C 0 km/h
742 17-09-2011 04:23:01 13 C 10.09 g/m*3 13 C 0 km/h
743 17-09-2011 04:35:01 13.2 C 10.22 g/m*3 13.2 C 0 km/h
744 17-09-2011 04:47:02 13.4 C 10.46 g/m*3 13.4 C 0 km/h
745 17-09-2011 04:59:02 13.5 C 10.53 g/m*3 13.5 C 0 km/h
746 17-09-2011 05:11:01 13.5 C 10.53 g/m*3 13.5 C 0 km/h
747 17-09-2011 05:23:02 13.6 C 10.59 g/m*3 13.6 C 0 km/h
748 17-09-2011 05:35:01 13.5 C 10.53 g/m*3 13.5 C 0 km/h
749 17-09-2011 05:47:02 13.8 C 10.72 g/m*3 13.8 C 0 km/h
750 17-09-2011 05:59:02 13.6 C 10.59 g/m*3 13.6 C 0 km/h
Sensor: Nr:Datum:Temp:Abs-Feuchte:Windchill:Wind:
Aussen-T/F 751 17-09-2011 06:11:01 13.1 C 10.27 g/m*3 13.1 C 0 km/h
752 17-09-2011 06:23:01 13 C 10.21 g/m*3 13 C 0 km/h
753 17-09-2011 06:35:02 14.1 C 10.8 g/m*3 14.1 C 0 km/h
754 17-09-2011 06:47:01 14.5 C 11.19 g/m*3 14.5 C 0 km/h
755 17-09-2011 06:59:01 14.9 C 11.47 g/m*3 14.9 C 0 km/h
756 17-09-2011 07:11:02 14.9 C 11.47 g/m*3 14.9 C 0 km/h
757 17-09-2011 07:23:01 14.9 C 11.47 g/m*3 14.9 C 0 km/h
758 17-09-2011 07:35:02 14.8 C 11.4 g/m*3 14.8 C 0 km/h
759 17-09-2011 07:47:01 14.7 C 11.33 g/m*3 14.7 C 0 km/h
760 17-09-2011 07:59:01 14.9 C 11.47 g/m*3 14.9 C 0 km/h
761 17-09-2011 08:11:02 15.3 C 11.62 g/m*3 15.3 C 0 km/h
762 17-09-2011 08:23:01 15.2 C 11.55 g/m*3 15.2 C 0 km/h
763 17-09-2011 08:35:01 15.2 C 11.55 g/m*3 15.2 C 0 km/h
764 17-09-2011 08:47:01 15.7 C 12.04 g/m*3 15.7 C 0 km/h
765 17-09-2011 08:59:01 16.1 C 12.2 g/m*3 16.1 C 0 km/h
766 17-09-2011 09:11:01 16 C 12.13 g/m*3 16 C 0 km/h
767 17-09-2011 09:23:02 16.3 C 12.21 g/m*3 16.3 C 0 km/h
768 17-09-2011 09:35:01 16.4 C 12 g/m*3 16.4 C 0 km/h
769 17-09-2011 09:47:02 17.1 C 10.77 g/m*3 17.1 C 0 km/h
770 17-09-2011 09:59:02 16.8 C 10.29 g/m*3 16.8 C 0 km/h
771 17-09-2011 10:11:01 17.1 C 9.46 g/m*3 17.1 C 0 km/h
772 17-09-2011 10:23:02 17.5 C 9.84 g/m*3 17.5 C 0 km/h
773 17-09-2011 10:35:01 18.4 C 9.44 g/m*3 18.4 C 0 km/h
774 17-09-2011 10:47:02 18.7 C 8.81 g/m*3 18.7 C 0 km/h
775 17-09-2011 10:59:02 19.7 C 8.83 g/m*3 19.7 C 0 km/h
Sensor: Nr:Datum:Temp:Abs-Feuchte:Windchill:Wind:
Aussen-T/F 776 17-09-2011 11:11:01 19.6 C 8.61 g/m*3 19.6 C 0 km/h
777 17-09-2011 11:23:01 19 C 8.47 g/m*3 19 C 0 km/h
778 17-09-2011 11:35:02 18.7 C 8.65 g/m*3 18.7 C 0 km/h
779 17-09-2011 11:47:01 18.6 C 8.59 g/m*3 18.6 C 0 km/h
780 17-09-2011 11:59:01 19 C 8.15 g/m*3 19 C 0 km/h
781 17-09-2011 12:11:02 19.1 C 7.87 g/m*3 19.1 C 0 km/h
782 17-09-2011 12:23:01 19.4 C 8.18 g/m*3 19.4 C 0 km/h
783 17-09-2011 12:35:01 19.5 C 7.89 g/m*3 19.5 C 0 km/h
784 17-09-2011 12:47:01 20 C 7.95 g/m*3 20 C 0 km/h
785 17-09-2011 12:59:01 20.2 C 8.22 g/m*3 20.2 C 0 km/h
786 17-09-2011 13:11:02 20.6 C 7.87 g/m*3 20.6 C 0 km/h
787 17-09-2011 13:23:01 20.7 C 7.92 g/m*3 20.7 C 0 km/h
788 17-09-2011 13:35:01 20.6 C 8.05 g/m*3 20.6 C 0 km/h
789 17-09-2011 13:47:01 20.6 C 8.23 g/m*3 20.6 C 0 km/h
790 17-09-2011 13:59:01 20.8 C 8.51 g/m*3 20.8 C 0 km/h
791 17-09-2011 14:11:01 20.7 C 8.28 g/m*3 20.7 C 0 km/h
792 17-09-2011 14:23:02 21.9 C 8.49 g/m*3 21.9 C 0 km/h
793 17-09-2011 14:35:01 22.9 C 8.58 g/m*3 22.9 C 0 km/h
794 17-09-2011 14:47:02 21.1 C 8.48 g/m*3 21.1 C 0 km/h
795 17-09-2011 14:59:02 21.3 C 8.57 g/m*3 21.3 C 0 km/h
796 17-09-2011 15:11:01 21.8 C 8.83 g/m*3 21.8 C 0 km/h
797 17-09-2011 15:23:01 22 C 8.73 g/m*3 22 C 0 km/h
798 17-09-2011 15:35:01 23.9 C 8.87 g/m*3 23.9 C 0 km/h
799 17-09-2011 15:47:01 23.1 C 8.06 g/m*3 23.1 C 0 km/h
800 17-09-2011 15:59:02 22.9 C 9.2 g/m*3 22.9 C 0 km/h
Sensor: Nr:Datum:Temp:Abs-Feuchte:Windchill:Wind:
Aussen-T/F 801 17-09-2011 16:11:01 23.3 C 8.36 g/m*3 23.3 C 0 km/h
802 17-09-2011 16:23:01 22.5 C 8.19 g/m*3 22.5 C 0 km/h
803 17-09-2011 16:35:02 21.8 C 8.63 g/m*3 21.8 C 0 km/h
804 17-09-2011 16:47:01 22 C 8.35 g/m*3 22 C 0 km/h
805 17-09-2011 16:59:01 23.4 C 8.41 g/m*3 23.4 C 0 km/h
806 17-09-2011 17:11:02 23.5 C 8.67 g/m*3 23.5 C 0 km/h
807 17-09-2011 17:23:01 22.5 C 8.39 g/m*3 22.5 C 0 km/h
808 17-09-2011 17:35:01 22.2 C 8.25 g/m*3 22.2 C 0 km/h
809 17-09-2011 17:47:01 21.6 C 8.53 g/m*3 21.6 C 0 km/h
810 17-09-2011 17:59:01 20.6 C 9.13 g/m*3 20.6 C 0 km/h
811 17-09-2011 18:11:01 21 C 8.79 g/m*3 21 C 0 km/h
812 17-09-2011 18:23:01 20.7 C 8.64 g/m*3 20.7 C 0 km/h
813 17-09-2011 18:35:01 19.9 C 8.42 g/m*3 19.9 C 0 km/h
814 17-09-2011 18:47:02 19.4 C 7.84 g/m*3 19.4 C 0 km/h
815 17-09-2011 18:59:02 18.9 C 7.94 g/m*3 18.9 C 0 km/h
816 17-09-2011 19:11:01 17.9 C 8.24 g/m*3 17.9 C 0 km/h
817 17-09-2011 19:23:02 17.3 C 8.25 g/m*3 17.3 C 0 km/h
818 17-09-2011 19:35:01 17.1 C 7.86 g/m*3 17.1 C 0 km/h
819 17-09-2011 19:47:02 16.8 C 8.01 g/m*3 16.8 C 0 km/h
820 17-09-2011 19:59:02 16 C 8.17 g/m*3 16 C 0 km/h
821 17-09-2011 20:11:01 15.4 C 8.41 g/m*3 15.4 C 0 km/h
822 17-09-2011 20:23:01 15.4 C 8.54 g/m*3 15.4 C 0 km/h
823 17-09-2011 20:35:02 15.9 C 8.4 g/m*3 15.9 C 0 km/h
824 17-09-2011 20:47:01 16.5 C 8 g/m*3 16.5 C 0 km/h
825 17-09-2011 20:59:01 15.9 C 8.13 g/m*3 15.9 C 0 km/h
Sensor: Nr:Datum:Temp:Abs-Feuchte:Windchill:Wind:
Aussen-T/F 826 17-09-2011 21:11:02 15.5 C 8.2 g/m*3 15.5 C 0 km/h
827 17-09-2011 21:23:01 15.4 C 8.41 g/m*3 15.4 C 0 km/h
828 17-09-2011 21:35:02 15.3 C 8.23 g/m*3 15.3 C 0 km/h
829 17-09-2011 21:47:01 15.2 C 8.05 g/m*3 15.2 C 0 km/h
830 17-09-2011 21:59:01 15 C 7.69 g/m*3 15 C 0 km/h
831 17-09-2011 22:13:04 14.7 C 7.81 g/m*3 14.7 C 0 km/h
832 17-09-2011 22:25:04 14.2 C 8.06 g/m*3 14.2 C 0 km/h
833 17-09-2011 22:37:04 14.1 C 8.01 g/m*3 14.1 C 0 km/h
834 17-09-2011 22:49:04 14.4 C 8.03 g/m*3 14.4 C 0 km/h
835 17-09-2011 23:01:04 14.1 C 8.01 g/m*3 14.1 C 0 km/h
836 17-09-2011 23:13:04 14 C 8.2 g/m*3 14 C 0 km/h
837 17-09-2011 23:25:04 13.8 C 8.22 g/m*3 13.8 C 0 km/h
838 17-09-2011 23:37:04 13.7 C 8.17 g/m*3 13.7 C 0 km/h
839 17-09-2011 23:49:04 14 C 7.96 g/m*3 14 C 0 km/h
840 18-09-2011 00:01:04 13.9 C 8.15 g/m*3 13.9 C 0 km/h
841 18-09-2011 00:13:04 13.7 C 8.17 g/m*3 13.7 C 0 km/h
842 18-09-2011 00:25:04 13.5 C 8.07 g/m*3 13.5 C 0 km/h
843 18-09-2011 00:37:04 13.8 C 8.1 g/m*3 13.8 C 0 km/h
844 18-09-2011 00:49:04 13.4 C 8.14 g/m*3 13.4 C 0 km/h
845 18-09-2011 01:01:04 13.4 C 8.25 g/m*3 13.4 C 0 km/h
846 18-09-2011 01:13:04 13.7 C 8.17 g/m*3 13.7 C 0 km/h
847 18-09-2011 01:25:04 14 C 7.84 g/m*3 14 C 0 km/h
848 18-09-2011 01:37:04 14 C 7.84 g/m*3 14 C 0 km/h
849 18-09-2011 01:49:05 13.9 C 8.03 g/m*3 13.9 C 0 km/h
850 18-09-2011 02:01:05 14 C 7.72 g/m*3 14 C 0 km/h
Sensor: Nr:Datum:Temp:Abs-Feuchte:Windchill:Wind:
Aussen-T/F 851 18-09-2011 02:13:05 14 C 7.72 g/m*3 14 C 0 km/h
852 18-09-2011 02:25:05 14.1 C 7.77 g/m*3 14.1 C 0 km/h
853 18-09-2011 02:37:05 13.9 C 8.03 g/m*3 13.9 C 0 km/h
854 18-09-2011 02:49:05 14 C 7.96 g/m*3 14 C 0 km/h
855 18-09-2011 03:01:05 14 C 8.08 g/m*3 14 C 0 km/h
856 18-09-2011 03:13:05 14.3 C 8.35 g/m*3 14.3 C 0 km/h
857 18-09-2011 03:25:05 14.1 C 8.37 g/m*3 14.1 C 0 km/h
858 18-09-2011 03:37:05 13.5 C 8.42 g/m*3 13.5 C 0 km/h
859 18-09-2011 03:49:05 13 C 8.62 g/m*3 13 C 0 km/h
860 18-09-2011 04:01:05 12.8 C 8.96 g/m*3 12.8 C 0 km/h
861 18-09-2011 04:13:05 12.6 C 9.07 g/m*3 12.6 C 0 km/h
862 18-09-2011 04:25:05 12.4 C 9.07 g/m*3 12.4 C 0 km/h
863 18-09-2011 04:37:05 12.3 C 9.12 g/m*3 12.3 C 0 km/h
864 18-09-2011 04:49:05 12.2 C 9.17 g/m*3 12.2 C 0 km/h
865 18-09-2011 05:01:05 12.3 C 9.34 g/m*3 12.3 C 0 km/h
866 18-09-2011 05:13:05 12.1 C 9.22 g/m*3 12.1 C 0 km/h
867 18-09-2011 05:25:05 12 C 9.27 g/m*3 12 C 0 km/h
868 18-09-2011 05:37:05 11.9 C 9.21 g/m*3 11.9 C 0 km/h
869 18-09-2011 05:49:05 11.8 C 9.26 g/m*3 11.8 C 0 km/h
870 18-09-2011 06:01:06 11.8 C 9.26 g/m*3 11.8 C 0 km/h
871 18-09-2011 06:13:06 11.8 C 9.26 g/m*3 11.8 C 0 km/h
872 18-09-2011 06:25:06 11.8 C 9.26 g/m*3 11.8 C 0 km/h
873 18-09-2011 06:37:06 11.8 C 9.26 g/m*3 11.8 C 0 km/h
874 18-09-2011 06:49:06 11.8 C 9.26 g/m*3 11.8 C 0 km/h
875 18-09-2011 07:01:06 11.4 C 9.03 g/m*3 11.4 C 0 km/h
Sensor: Nr:Datum:Temp:Abs-Feuchte:Windchill:Wind:
Aussen-T/F 876 18-09-2011 07:13:06 11.4 C 9.03 g/m*3 11.4 C 0 km/h
877 18-09-2011 07:25:06 11.3 C 8.98 g/m*3 11.3 C 0 km/h
878 18-09-2011 07:37:06 11.1 C 8.86 g/m*3 11.1 C 0 km/h
879 18-09-2011 07:49:06 11.2 C 9.02 g/m*3 11.2 C 0 km/h
880 18-09-2011 08:01:06 11.1 C 8.86 g/m*3 11.1 C 0 km/h
881 18-09-2011 08:13:06 11.2 C 9.02 g/m*3 11.2 C 0 km/h
882 18-09-2011 08:25:06 11.5 C 9.19 g/m*3 11.5 C 0 km/h
883 18-09-2011 08:37:04 11.5 C 9.19 g/m*3 11.5 C 0 km/h
884 18-09-2011 08:49:02 11.5 C 9.19 g/m*3 11.5 C 0 km/h
885 18-09-2011 09:01:02 11.7 C 9.31 g/m*3 11.7 C 0 km/h
886 18-09-2011 09:13:02 11.7 C 9.2 g/m*3 11.7 C 0 km/h
887 18-09-2011 09:25:02 11.9 C 9.32 g/m*3 11.9 C 0 km/h
888 18-09-2011 09:37:02 12.1 C 9.33 g/m*3 12.1 C 0 km/h
889 18-09-2011 09:49:01 12.1 C 9.22 g/m*3 12.1 C 0 km/h
890 18-09-2011 10:01:01 12.4 C 9.29 g/m*3 12.4 C 0 km/h
891 18-09-2011 10:13:01 12.4 C 9.07 g/m*3 12.4 C 0 km/h
892 18-09-2011 10:25:01 12 C 8.74 g/m*3 12 C 0 km/h
893 18-09-2011 10:37:01 12.1 C 8.79 g/m*3 12.1 C 0 km/h
894 18-09-2011 10:49:02 12.1 C 8.9 g/m*3 12.1 C 0 km/h
895 18-09-2011 11:01:02 12.1 C 8.9 g/m*3 12.1 C 0 km/h
896 18-09-2011 11:13:02 12.1 C 8.69 g/m*3 12.1 C 0 km/h
897 18-09-2011 11:25:03 12.1 C 8.47 g/m*3 12.1 C 0 km/h
898 18-09-2011 11:37:02 12.3 C 8.36 g/m*3 12.3 C 0 km/h
899 18-09-2011 11:49:02 13.1 C 8.67 g/m*3 13.1 C 0 km/h
900 18-09-2011 12:01:02 14 C 8.68 g/m*3 14 C 0 km/h
Sensor: Nr:Datum:Temp:Abs-Feuchte:Windchill:Wind:
Aussen-T/F 901 18-09-2011 12:13:02 14.3 C 8.6 g/m*3 14.3 C 0 km/h
902 18-09-2011 12:25:02 13.9 C 8.75 g/m*3 13.9 C 0 km/h
903 18-09-2011 12:37:02 14 C 8.2 g/m*3 14 C 0 km/h
904 18-09-2011 12:49:02 14.1 C 8.25 g/m*3 14.1 C 0 km/h
905 18-09-2011 13:01:01 12 C 7.35 g/m*3 12 C 0 km/h
906 18-09-2011 13:13:01 11.9 C 8.05 g/m*3 11.9 C 0 km/h
907 18-09-2011 13:25:02 12.5 C 8.03 g/m*3 12.5 C 0 km/h
908 18-09-2011 13:37:02 13.3 C 8.09 g/m*3 13.3 C 0 km/h
909 18-09-2011 13:49:02 15.8 C 8.62 g/m*3 15.8 C 0 km/h
910 18-09-2011 14:01:03 15.5 C 7.8 g/m*3 15.5 C 0 km/h
911 18-09-2011 14:13:03 14.6 C 7.51 g/m*3 14.6 C 0 km/h
912 18-09-2011 14:25:02 14.8 C 6.97 g/m*3 14.8 C 0 km/h
913 18-09-2011 14:37:03 14.6 C 6.63 g/m*3 14.6 C 0 km/h
914 18-09-2011 14:49:02 14.7 C 6.8 g/m*3 14.7 C 0 km/h
915 18-09-2011 15:01:02 15.4 C 6.83 g/m*3 15.4 C 0 km/h
916 18-09-2011 15:13:02 15.2 C 6.75 g/m*3 15.2 C 0 km/h
917 18-09-2011 15:25:01 14.5 C 6.72 g/m*3 14.5 C 0 km/h
918 18-09-2011 15:37:02 15 C 6.54 g/m*3 15 C 0 km/h
919 18-09-2011 15:49:02 15.5 C 6.61 g/m*3 15.5 C 0 km/h
920 18-09-2011 16:01:02 16.6 C 6.64 g/m*3 16.6 C 0 km/h
921 18-09-2011 16:13:02 15.4 C 6.57 g/m*3 15.4 C 0 km/h
922 18-09-2011 16:25:01 15 C 6.54 g/m*3 15 C 0 km/h
923 18-09-2011 16:37:02 15.3 C 6.01 g/m*3 15.3 C 0 km/h
924 18-09-2011 16:49:01 16.9 C 6.76 g/m*3 16.9 C 0 km/h
925 18-09-2011 17:01:02 15.6 C 6.25 g/m*3 15.6 C 0 km/h
Sensor: Nr:Datum:Temp:Abs-Feuchte:Windchill:Wind:
Aussen-T/F 926 18-09-2011 17:13:02 14.9 C 6.37 g/m*3 14.9 C 0 km/h
927 18-09-2011 17:25:02 14.7 C 6.55 g/m*3 14.7 C 0 km/h
928 18-09-2011 17:37:02 16.2 C 6.9 g/m*3 16.2 C 0 km/h
929 18-09-2011 17:49:02 14.7 C 6.67 g/m*3 14.7 C 0 km/h
930 18-09-2011 18:01:01 14.9 C 6.63 g/m*3 14.9 C 0 km/h
931 18-09-2011 18:13:01 13.5 C 7.37 g/m*3 13.5 C 0 km/h
932 18-09-2011 18:25:02 13.6 C 7.41 g/m*3 13.6 C 0 km/h
933 18-09-2011 18:37:01 15.3 C 7.44 g/m*3 15.3 C 0 km/h
934 18-09-2011 18:49:02 15 C 6.54 g/m*3 15 C 0 km/h
935 18-09-2011 19:01:02 14.9 C 7.14 g/m*3 14.9 C 0 km/h
936 18-09-2011 19:13:02 14.2 C 7.2 g/m*3 14.2 C 0 km/h
937 18-09-2011 19:25:02 12.8 C 7.5 g/m*3 12.8 C 0 km/h
938 18-09-2011 19:37:02 12.2 C 7.45 g/m*3 12.2 C 0 km/h
939 18-09-2011 19:49:02 12.6 C 7.52 g/m*3 12.6 C 0 km/h
940 18-09-2011 20:01:02 12.6 C 7.52 g/m*3 12.6 C 0 km/h
941 18-09-2011 20:13:02 12.3 C 7.71 g/m*3 12.3 C 0 km/h
942 18-09-2011 20:25:01 11.9 C 7.73 g/m*3 11.9 C 0 km/h
943 18-09-2011 20:37:02 11.4 C 8.01 g/m*3 11.4 C 0 km/h
944 18-09-2011 20:49:01 10.8 C 8.01 g/m*3 10.8 C 0 km/h
945 18-09-2011 21:01:02 10.4 C 8 g/m*3 10.4 C 0 km/h
946 18-09-2011 21:13:02 10.4 C 8.1 g/m*3 10.4 C 0 km/h
947 18-09-2011 21:25:01 10.1 C 7.94 g/m*3 10.1 C 0 km/h
948 18-09-2011 21:37:02 9.9 C 8.03 g/m*3 9.9 C 0 km/h
949 18-09-2011 21:49:01 9.8 C 7.98 g/m*3 9.8 C 0 km/h
950 18-09-2011 22:02:03 9.8 C 8.07 g/m*3 9.8 C 0 km/h
Sensor: Nr:Datum:Temp:Abs-Feuchte:Windchill:Wind:
Aussen-T/F 951 18-09-2011 22:14:03 10 C 8.08 g/m*3 10 C 0 km/h
952 18-09-2011 22:26:03 9.8 C 8.07 g/m*3 9.8 C 0 km/h
953 18-09-2011 22:38:03 9.1 C 7.72 g/m*3 9.1 C 0 km/h
954 18-09-2011 22:50:03 8.8 C 7.57 g/m*3 8.8 C 0 km/h
955 18-09-2011 23:02:03 8.3 C 7.33 g/m*3 8.3 C 0 km/h
956 18-09-2011 23:14:03 8.4 C 7.47 g/m*3 8.4 C 0 km/h
957 18-09-2011 23:26:03 8.4 C 7.47 g/m*3 8.4 C 0 km/h
958 18-09-2011 23:38:03 8.1 C 7.32 g/m*3 8.1 C 0 km/h
959 18-09-2011 23:50:03 8.3 C 7.42 g/m*3 8.3 C 0 km/h
960 19-09-2011 00:02:04 8.2 C 7.45 g/m*3 8.2 C 0 km/h
961 19-09-2011 00:14:04 8.5 C 7.6 g/m*3 8.5 C 0 km/h
962 19-09-2011 00:26:04 8.9 C 7.8 g/m*3 8.9 C 0 km/h
963 19-09-2011 00:38:04 9.4 C 8.05 g/m*3 9.4 C 0 km/h
964 19-09-2011 00:50:04 9.4 C 8.05 g/m*3 9.4 C 0 km/h
965 19-09-2011 01:02:04 9.3 C 8 g/m*3 9.3 C 0 km/h
966 19-09-2011 01:14:04 9.1 C 7.9 g/m*3 9.1 C 0 km/h
967 19-09-2011 01:26:04 8.9 C 7.8 g/m*3 8.9 C 0 km/h
968 19-09-2011 01:38:04 8.7 C 7.7 g/m*3 8.7 C 0 km/h
969 19-09-2011 01:50:04 8.9 C 7.71 g/m*3 8.9 C 0 km/h
970 19-09-2011 02:02:04 9 C 7.67 g/m*3 9 C 0 km/h
971 19-09-2011 02:14:04 9.6 C 7.79 g/m*3 9.6 C 0 km/h
972 19-09-2011 02:26:04 9.8 C 7.79 g/m*3 9.8 C 0 km/h
973 19-09-2011 02:38:04 9.9 C 7.66 g/m*3 9.9 C 0 km/h
974 19-09-2011 02:50:04 9.7 C 7.56 g/m*3 9.7 C 0 km/h
975 19-09-2011 03:02:04 9.6 C 7.6 g/m*3 9.6 C 0 km/h
Sensor: Nr:Datum:Temp:Abs-Feuchte:Windchill:Wind:
Aussen-T/F 976 19-09-2011 03:14:04 9.4 C 7.42 g/m*3 9.4 C 0 km/h
977 19-09-2011 03:26:04 9 C 7.23 g/m*3 9 C 0 km/h
978 19-09-2011 03:38:04 8.9 C 7.45 g/m*3 8.9 C 0 km/h
979 19-09-2011 03:50:04 8.7 C 7.35 g/m*3 8.7 C 0 km/h
980 19-09-2011 04:02:04 8.7 C 7.44 g/m*3 8.7 C 0 km/h
981 19-09-2011 04:14:05 8.7 C 7.44 g/m*3 8.7 C 0 km/h
982 19-09-2011 04:26:05 9 C 7.58 g/m*3 9 C 0 km/h
983 19-09-2011 04:38:05 9.6 C 7.97 g/m*3 9.6 C 0 km/h
984 19-09-2011 04:50:05 9.8 C 7.98 g/m*3 9.8 C 0 km/h
985 19-09-2011 05:02:05 10.1 C 8.04 g/m*3 10.1 C 0 km/h
986 19-09-2011 05:14:05 10.4 C 8 g/m*3 10.4 C 0 km/h
987 19-09-2011 05:26:05 10.7 C 7.76 g/m*3 10.7 C 0 km/h
988 19-09-2011 05:38:05 10.8 C 7.31 g/m*3 10.8 C 0 km/h
989 19-09-2011 05:50:05 11 C 7.31 g/m*3 11 C 0 km/h
990 19-09-2011 06:02:05 11 C 7.31 g/m*3 11 C 0 km/h
991 19-09-2011 06:14:05 11 C 7.31 g/m*3 11 C 0 km/h
992 19-09-2011 06:26:05 11.1 C 7.25 g/m*3 11.1 C 0 km/h
993 19-09-2011 06:38:05 10.8 C 7.51 g/m*3 10.8 C 0 km/h
994 19-09-2011 06:50:05 10.5 C 7.57 g/m*3 10.5 C 0 km/h
995 19-09-2011 07:02:05 10.2 C 7.52 g/m*3 10.2 C 0 km/h
996 19-09-2011 07:14:05 10.4 C 7.71 g/m*3 10.4 C 0 km/h
997 19-09-2011 07:26:02 10.8 C 7.61 g/m*3 10.8 C 0 km/h
998 19-09-2011 07:38:01 11.1 C 7.45 g/m*3 11.1 C 0 km/h
999 19-09-2011 07:50:01 11.3 C 7.34 g/m*3 11.3 C 0 km/h
1000 19-09-2011 08:02:02 11.4 C 7.19 g/m*3 11.4 C 0 km/h
Sensor: Nr:Datum:Temp:Abs-Feuchte:Windchill:Wind:
Aussen-T/F 1001 19-09-2011 08:14:02 11.3 C 7.24 g/m*3 11.3 C 0 km/h
1002 19-09-2011 08:26:02 11.1 C 7.25 g/m*3 11.1 C 0 km/h
1003 19-09-2011 08:38:02 11.1 C 7.45 g/m*3 11.1 C 0 km/h
1004 19-09-2011 08:50:02 11.4 C 7.7 g/m*3 11.4 C 0 km/h
1005 19-09-2011 09:02:02 11.8 C 7.79 g/m*3 11.8 C 0 km/h
1006 19-09-2011 09:14:02 12 C 7.78 g/m*3 12 C 0 km/h
1007 19-09-2011 09:26:02 12.1 C 8.04 g/m*3 12.1 C 0 km/h
1008 19-09-2011 09:38:02 12.8 C 7.95 g/m*3 12.8 C 0 km/h
1009 19-09-2011 09:50:02 13.4 C 7.79 g/m*3 13.4 C 0 km/h
1010 19-09-2011 10:02:02 13.2 C 7.46 g/m*3 13.2 C 0 km/h
1011 19-09-2011 10:14:02 13.5 C 7.6 g/m*3 13.5 C 0 km/h
1012 19-09-2011 10:26:02 14.1 C 7.65 g/m*3 14.1 C 0 km/h
1013 19-09-2011 10:38:02 14 C 7.6 g/m*3 14 C 0 km/h
1014 19-09-2011 10:50:02 13.4 C 7.67 g/m*3 13.4 C 0 km/h
1015 19-09-2011 11:02:02 14.2 C 7.69 g/m*3 14.2 C 0 km/h
1016 19-09-2011 11:14:02 14 C 7.72 g/m*3 14 C 0 km/h
1017 19-09-2011 11:26:02 13.4 C 8.14 g/m*3 13.4 C 0 km/h
1018 19-09-2011 11:38:02 12.9 C 8.11 g/m*3 12.9 C 0 km/h
1019 19-09-2011 11:50:02 13.6 C 8.12 g/m*3 13.6 C 0 km/h
1020 19-09-2011 12:02:02 13.5 C 7.72 g/m*3 13.5 C 0 km/h
1021 19-09-2011 12:14:02 13.6 C 7.77 g/m*3 13.6 C 0 km/h
1022 19-09-2011 12:26:02 15 C 7.69 g/m*3 15 C 0 km/h
1023 19-09-2011 12:38:02 15.9 C 7.18 g/m*3 15.9 C 0 km/h
1024 19-09-2011 12:50:02 15.9 C 7.31 g/m*3 15.9 C 0 km/h
1025 19-09-2011 13:02:02 15.3 C 7.31 g/m*3 15.3 C 0 km/h
Sensor: Nr:Datum:Temp:Abs-Feuchte:Windchill:Wind:
Aussen-T/F 1026 19-09-2011 13:14:02 15.9 C 7.04 g/m*3 15.9 C 0 km/h
1027 19-09-2011 13:26:01 15.8 C 7.13 g/m*3 15.8 C 0 km/h
1028 19-09-2011 13:38:02 16.6 C 6.5 g/m*3 16.6 C 0 km/h
1029 19-09-2011 13:50:02 17.2 C 6.15 g/m*3 17.2 C 0 km/h
1030 19-09-2011 14:02:02 16.8 C 6.15 g/m*3 16.8 C 0 km/h
1031 19-09-2011 14:14:02 16.7 C 6.11 g/m*3 16.7 C 0 km/h
1032 19-09-2011 14:26:02 17.5 C 5.96 g/m*3 17.5 C 0 km/h
1033 19-09-2011 14:38:02 18.1 C 6.03 g/m*3 18.1 C 0 km/h
1034 19-09-2011 14:50:02 17.5 C 5.96 g/m*3 17.5 C 0 km/h
1035 19-09-2011 15:02:02 16.5 C 5.76 g/m*3 16.5 C 0 km/h
1036 19-09-2011 15:14:02 16.7 C 6.11 g/m*3 16.7 C 0 km/h
1037 19-09-2011 15:26:02 17.4 C 6.37 g/m*3 17.4 C 0 km/h
1038 19-09-2011 15:38:02 18 C 7.07 g/m*3 18 C 0 km/h
1039 19-09-2011 15:50:02 18.1 C 6.33 g/m*3 18.1 C 0 km/h
1040 19-09-2011 16:02:02 18.1 C 6.18 g/m*3 18.1 C 0 km/h
1041 19-09-2011 16:14:02 18.1 C 6.18 g/m*3 18.1 C 0 km/h
1042 19-09-2011 16:26:02 18 C 6.45 g/m*3 18 C 0 km/h
1043 19-09-2011 16:38:02 17.5 C 6.41 g/m*3 17.5 C 0 km/h
1044 19-09-2011 16:50:02 17.6 C 6.75 g/m*3 17.6 C 0 km/h
1045 19-09-2011 17:02:01 20.6 C 6.62 g/m*3 20.6 C 0 km/h
1046 19-09-2011 17:14:01 19.4 C 6.17 g/m*3 19.4 C 0 km/h
1047 19-09-2011 17:26:02 17.5 C 7.01 g/m*3 17.5 C 0 km/h
1048 19-09-2011 17:38:02 16.7 C 8.1 g/m*3 16.7 C 0 km/h
1049 19-09-2011 17:50:01 16.9 C 8.34 g/m*3 16.9 C 0 km/h
1050 19-09-2011 18:02:02 19.8 C 7.86 g/m*3 19.8 C 0 km/h
Sensor: Nr:Datum:Temp:Abs-Feuchte:Windchill:Wind:
Aussen-T/F 1051 19-09-2011 18:14:02 19.3 C 7.46 g/m*3 19.3 C 0 km/h
1052 19-09-2011 18:26:01 15.5 C 7.93 g/m*3 15.5 C 0 km/h
1053 19-09-2011 18:38:02 14.9 C 8.03 g/m*3 14.9 C 0 km/h
1054 19-09-2011 18:50:02 14.3 C 8.23 g/m*3 14.3 C 0 km/h
1055 19-09-2011 19:02:02 14.7 C 8.06 g/m*3 14.7 C 0 km/h
1056 19-09-2011 19:14:02 14.7 C 7.55 g/m*3 14.7 C 0 km/h
1057 19-09-2011 19:26:01 13.7 C 7.58 g/m*3 13.7 C 0 km/h
1058 19-09-2011 19:38:02 13.3 C 7.86 g/m*3 13.3 C 0 km/h
1059 19-09-2011 19:50:02 12.7 C 7.57 g/m*3 12.7 C 0 km/h
1060 19-09-2011 20:02:02 12.4 C 7.54 g/m*3 12.4 C 0 km/h
1061 19-09-2011 20:14:02 12.2 C 7.55 g/m*3 12.2 C 0 km/h
1062 19-09-2011 20:26:02 11.7 C 7.64 g/m*3 11.7 C 0 km/h
1063 19-09-2011 20:38:02 12 C 7.78 g/m*3 12 C 0 km/h
1064 19-09-2011 20:50:02 11.5 C 7.64 g/m*3 11.5 C 0 km/h
1065 19-09-2011 21:02:02 11.4 C 7.9 g/m*3 11.4 C 0 km/h
1066 19-09-2011 21:14:02 11.6 C 8.11 g/m*3 11.6 C 0 km/h
1067 19-09-2011 21:26:02 11.2 C 7.91 g/m*3 11.2 C 0 km/h
1068 19-09-2011 21:38:01 11.2 C 8.01 g/m*3 11.2 C 0 km/h
1069 19-09-2011 21:51:01 11.3 C 8.16 g/m*3 11.3 C 0 km/h
1070 19-09-2011 22:03:01 10.8 C 7.91 g/m*3 10.8 C 0 km/h
1071 19-09-2011 22:15:01 11.1 C 8.06 g/m*3 11.1 C 0 km/h
1072 19-09-2011 22:27:01 11.2 C 8.01 g/m*3 11.2 C 0 km/h
1073 19-09-2011 22:39:01 11.4 C 8.01 g/m*3 11.4 C 0 km/h
1074 19-09-2011 22:51:01 11.1 C 7.86 g/m*3 11.1 C 0 km/h
1075 19-09-2011 23:03:01 11.3 C 8.06 g/m*3 11.3 C 0 km/h
Sensor: Nr:Datum:Temp:Abs-Feuchte:Windchill:Wind:
Aussen-T/F 1076 19-09-2011 23:15:01 11.4 C 8.01 g/m*3 11.4 C 0 km/h
1077 19-09-2011 23:27:01 11 C 7.81 g/m*3 11 C 0 km/h
1078 19-09-2011 23:39:01 10.4 C 7.61 g/m*3 10.4 C 0 km/h
1079 19-09-2011 23:51:01 10.1 C 7.66 g/m*3 10.1 C 0 km/h
1080 20-09-2011 00:03:02 9.9 C 7.84 g/m*3 9.9 C 0 km/h
1081 20-09-2011 00:15:02 10.1 C 7.94 g/m*3 10.1 C 0 km/h
1082 20-09-2011 00:27:02 10.6 C 8.2 g/m*3 10.6 C 0 km/h
1083 20-09-2011 00:39:02 10.2 C 7.9 g/m*3 10.2 C 0 km/h
1084 20-09-2011 00:51:02 9.5 C 7.55 g/m*3 9.5 C 0 km/h
1085 20-09-2011 01:03:02 9.5 C 7.74 g/m*3 9.5 C 0 km/h
1086 20-09-2011 01:15:02 9.1 C 7.54 g/m*3 9.1 C 0 km/h
1087 20-09-2011 01:27:02 8.7 C 7.44 g/m*3 8.7 C 0 km/h
1088 20-09-2011 01:39:02 8.7 C 7.52 g/m*3 8.7 C 0 km/h
1089 20-09-2011 01:51:02 9 C 7.58 g/m*3 9 C 0 km/h
1090 20-09-2011 02:03:02 8.6 C 7.56 g/m*3 8.6 C 0 km/h
1091 20-09-2011 02:15:02 8.4 C 7.47 g/m*3 8.4 C 0 km/h
1092 20-09-2011 02:27:02 8.4 C 7.47 g/m*3 8.4 C 0 km/h
1093 20-09-2011 02:39:02 8.7 C 7.7 g/m*3 8.7 C 0 km/h
1094 20-09-2011 02:51:02 8.6 C 7.65 g/m*3 8.6 C 0 km/h
1095 20-09-2011 03:03:02 8.7 C 7.7 g/m*3 8.7 C 0 km/h
1096 20-09-2011 03:15:02 8.9 C 7.8 g/m*3 8.9 C 0 km/h
1097 20-09-2011 03:27:02 8.4 C 7.55 g/m*3 8.4 C 0 km/h
1098 20-09-2011 03:39:02 7.9 C 7.31 g/m*3 7.9 C 0 km/h
1099 20-09-2011 03:51:02 7.6 C 7.17 g/m*3 7.6 C 0 km/h
1100 20-09-2011 04:03:03 7.5 C 7.12 g/m*3 7.5 C 0 km/h
Sensor: Nr:Datum:Temp:Abs-Feuchte:Windchill:Wind:
Aussen-T/F 1101 20-09-2011 04:15:03 7.2 C 6.99 g/m*3 7.2 C 0 km/h
1102 20-09-2011 04:27:03 7.3 C 7.03 g/m*3 7.3 C 0 km/h
1103 20-09-2011 04:39:03 7.4 C 7.08 g/m*3 7.4 C 0 km/h
1104 20-09-2011 04:51:03 7.1 C 6.94 g/m*3 7.1 C 0 km/h
1105 20-09-2011 05:03:03 7.2 C 7.06 g/m*3 7.2 C 0 km/h
1106 20-09-2011 05:15:03 6.9 C 6.93 g/m*3 6.9 C 0 km/h
1107 20-09-2011 05:27:03 7 C 6.97 g/m*3 7 C 0 km/h
1108 20-09-2011 05:39:03 7 C 6.97 g/m*3 7 C 0 km/h
1109 20-09-2011 05:51:03 6.6 C 6.87 g/m*3 6.6 C 0 km/h
1110 20-09-2011 06:03:03 6.4 C 6.78 g/m*3 6.4 C 0 km/h
1111 20-09-2011 06:15:03 6.3 C 6.74 g/m*3 6.3 C 0 km/h
1112 20-09-2011 06:27:03 6.8 C 6.96 g/m*3 6.8 C 0 km/h
1113 20-09-2011 06:39:03 6.3 C 6.74 g/m*3 6.3 C 0 km/h
1114 20-09-2011 06:51:03 5.9 C 6.56 g/m*3 5.9 C 0 km/h
1115 20-09-2011 07:03:03 6.2 C 6.69 g/m*3 6.2 C 0 km/h
1116 20-09-2011 07:15:03 6 C 6.6 g/m*3 6 C 0 km/h
1117 20-09-2011 07:27:03 6.2 C 6.69 g/m*3 6.2 C 0 km/h
1118 20-09-2011 07:39:02 6.3 C 6.74 g/m*3 6.3 C 0 km/h
1119 20-09-2011 07:51:02 6.4 C 6.78 g/m*3 6.4 C 0 km/h
1120 20-09-2011 08:03:02 6.8 C 7.04 g/m*3 6.8 C 0 km/h
1121 20-09-2011 08:15:02 6.5 C 6.9 g/m*3 6.5 C 0 km/h
1122 20-09-2011 08:27:02 6.9 C 7.08 g/m*3 6.9 C 0 km/h
1123 20-09-2011 08:39:02 7 C 7.05 g/m*3 7 C 0 km/h
1124 20-09-2011 08:51:02 7.2 C 7.14 g/m*3 7.2 C 0 km/h
1125 20-09-2011 09:03:01 7.9 C 7.56 g/m*3 7.9 C 0 km/h
Sensor: Nr:Datum:Temp:Abs-Feuchte:Windchill:Wind:
Aussen-T/F 1126 20-09-2011 09:15:02 8.1 C 7.57 g/m*3 8.1 C 0 km/h
1127 20-09-2011 09:27:02 9 C 7.93 g/m*3 9 C 0 km/h
1128 20-09-2011 09:39:02 9.8 C 8.44 g/m*3 9.8 C 0 km/h
1129 20-09-2011 09:51:02 9.8 C 8.35 g/m*3 9.8 C 0 km/h
1130 20-09-2011 10:03:03 9.9 C 8.4 g/m*3 9.9 C 0 km/h
1131 20-09-2011 10:15:02 10.8 C 8.8 g/m*3 10.8 C 0 km/h
1132 20-09-2011 10:27:02 12 C 9.38 g/m*3 12 C 0 km/h
1133 20-09-2011 10:39:02 12.7 C 9.46 g/m*3 12.7 C 0 km/h
1134 20-09-2011 10:51:01 13.5 C 9.36 g/m*3 13.5 C 0 km/h
1135 20-09-2011 11:03:02 14.1 C 8.62 g/m*3 14.1 C 0 km/h
1136 20-09-2011 11:15:01 14.4 C 8.41 g/m*3 14.4 C 0 km/h
1137 20-09-2011 11:27:01 14.5 C 8.33 g/m*3 14.5 C 0 km/h
1138 20-09-2011 11:39:01 14.7 C 8.31 g/m*3 14.7 C 0 km/h
1139 20-09-2011 11:51:01 14.8 C 8.61 g/m*3 14.8 C 0 km/h
1140 20-09-2011 12:03:01 15.4 C 8.28 g/m*3 15.4 C 0 km/h
1141 20-09-2011 12:15:02 15.8 C 8.21 g/m*3 15.8 C 0 km/h
1142 20-09-2011 12:27:02 16.1 C 8.09 g/m*3 16.1 C 0 km/h
1143 20-09-2011 12:39:01 16.3 C 8.19 g/m*3 16.3 C 0 km/h
1144 20-09-2011 12:51:02 16.8 C 8.01 g/m*3 16.8 C 0 km/h
1145 20-09-2011 13:03:01 17.3 C 7.66 g/m*3 17.3 C 0 km/h
1146 20-09-2011 13:15:02 17.7 C 7.54 g/m*3 17.7 C 0 km/h
1147 20-09-2011 13:27:03 17.9 C 7.63 g/m*3 17.9 C 0 km/h
1148 20-09-2011 13:39:01 18 C 6.76 g/m*3 18 C 0 km/h
1149 20-09-2011 13:51:02 18.4 C 6.92 g/m*3 18.4 C 0 km/h
1150 20-09-2011 14:03:02 18.8 C 7.41 g/m*3 18.8 C 0 km/h
Sensor: Nr:Datum:Temp:Abs-Feuchte:Windchill:Wind:
Aussen-T/F 1151 20-09-2011 14:15:02 19.3 C 6.97 g/m*3 19.3 C 0 km/h
1152 20-09-2011 14:27:02 19.2 C 7.09 g/m*3 19.2 C 0 km/h
1153 20-09-2011 14:39:02 19.1 C 6.88 g/m*3 19.1 C 0 km/h
1154 20-09-2011 14:51:02 19.4 C 7.34 g/m*3 19.4 C 0 km/h
1155 20-09-2011 15:03:02 19.4 C 7.01 g/m*3 19.4 C 0 km/h
1156 20-09-2011 15:15:01 19.2 C 6.93 g/m*3 19.2 C 0 km/h
1157 20-09-2011 15:27:01 19.3 C 7.13 g/m*3 19.3 C 0 km/h
1158 20-09-2011 15:39:02 19.2 C 6.93 g/m*3 19.2 C 0 km/h
1159 20-09-2011 15:51:02 19.1 C 6.88 g/m*3 19.1 C 0 km/h
1160 20-09-2011 16:03:02 19 C 6.84 g/m*3 19 C 0 km/h
1161 20-09-2011 16:15:01 18.9 C 7.29 g/m*3 18.9 C 0 km/h
1162 20-09-2011 16:27:01 18.9 C 7.45 g/m*3 18.9 C 0 km/h
1163 20-09-2011 16:39:02 19.1 C 7.38 g/m*3 19.1 C 0 km/h
1164 20-09-2011 16:51:02 18.9 C 7.45 g/m*3 18.9 C 0 km/h
1165 20-09-2011 17:03:02 18.7 C 7.2 g/m*3 18.7 C 0 km/h
1166 20-09-2011 17:15:02 18.7 C 8.01 g/m*3 18.7 C 0 km/h
1167 20-09-2011 17:27:02 19.1 C 8.69 g/m*3 19.1 C 0 km/h
1168 20-09-2011 17:39:02 18.5 C 8.07 g/m*3 18.5 C 0 km/h
1169 20-09-2011 17:51:02 18.8 C 8.37 g/m*3 18.8 C 0 km/h
1170 20-09-2011 18:03:02 17.8 C 8.65 g/m*3 17.8 C 0 km/h
1171 20-09-2011 18:15:02 17.4 C 9.04 g/m*3 17.4 C 0 km/h
1172 20-09-2011 18:27:03 16.8 C 9.29 g/m*3 16.8 C 0 km/h
1173 20-09-2011 18:39:01 16.6 C 9.32 g/m*3 16.6 C 0 km/h
1174 20-09-2011 18:51:02 16.4 C 9.35 g/m*3 16.4 C 0 km/h
1175 20-09-2011 19:03:01 16 C 9.13 g/m*3 16 C 0 km/h
Sensor: Nr:Datum:Temp:Abs-Feuchte:Windchill:Wind:
Aussen-T/F 1176 20-09-2011 19:15:02 15.7 C 9.23 g/m*3 15.7 C 0 km/h
1177 20-09-2011 19:27:02 15.5 C 9.12 g/m*3 15.5 C 0 km/h
1178 20-09-2011 19:39:02 15.3 C 9.01 g/m*3 15.3 C 0 km/h
1179 20-09-2011 19:51:02 15.1 C 9.03 g/m*3 15.1 C 0 km/h
1180 20-09-2011 20:03:02 15.1 C 9.03 g/m*3 15.1 C 0 km/h
1181 20-09-2011 20:15:02 14.8 C 9.12 g/m*3 14.8 C 0 km/h
1182 20-09-2011 20:27:02 14.7 C 9.07 g/m*3 14.7 C 0 km/h
1183 20-09-2011 20:39:02 14.7 C 9.07 g/m*3 14.7 C 0 km/h
1184 20-09-2011 20:51:01 14.5 C 8.95 g/m*3 14.5 C 0 km/h
1185 20-09-2011 21:03:02 14.4 C 9.02 g/m*3 14.4 C 0 km/h
1186 20-09-2011 21:15:01 13.9 C 8.87 g/m*3 13.9 C 0 km/h
1187 20-09-2011 21:27:01 13.8 C 9.06 g/m*3 13.8 C 0 km/h
1188 20-09-2011 21:39:01 13.4 C 8.95 g/m*3 13.4 C 0 km/h
1189 20-09-2011 21:51:01 13.1 C 8.79 g/m*3 13.1 C 0 km/h
1190 20-09-2011 22:03:02 12.5 C 8.58 g/m*3 12.5 C 0 km/h
1191 20-09-2011 22:15:01 12 C 8.53 g/m*3 12 C 0 km/h
1192 20-09-2011 22:27:01 11.7 C 8.58 g/m*3 11.7 C 0 km/h
1193 20-09-2011 22:39:02 11.3 C 8.47 g/m*3 11.3 C 0 km/h
1194 20-09-2011 22:51:02 11 C 8.31 g/m*3 11 C 0 km/h
1195 20-09-2011 23:03:02 10.7 C 8.25 g/m*3 10.7 C 0 km/h
1196 20-09-2011 23:15:01 10.5 C 8.15 g/m*3 10.5 C 0 km/h
1197 20-09-2011 23:27:01 10.2 C 7.99 g/m*3 10.2 C 0 km/h
1198 20-09-2011 23:39:02 10.3 C 8.14 g/m*3 10.3 C 0 km/h
1199 20-09-2011 23:51:01 10.2 C 8.09 g/m*3 10.2 C 0 km/h
1200 21-09-2011 00:03:02 10.2 C 8.18 g/m*3 10.2 C 0 km/h
Sensor: Nr:Datum:Temp:Abs-Feuchte:Windchill:Wind:
Aussen-T/F 1201 21-09-2011 00:15:01 9.9 C 8.12 g/m*3 9.9 C 0 km/h
1202 21-09-2011 00:27:01 9.9 C 8.22 g/m*3 9.9 C 0 km/h
1203 21-09-2011 00:39:02 9.6 C 8.06 g/m*3 9.6 C 0 km/h
1204 21-09-2011 00:51:02 9.4 C 7.96 g/m*3 9.4 C 0 km/h
1205 21-09-2011 01:03:02 9.3 C 7.91 g/m*3 9.3 C 0 km/h
1206 21-09-2011 01:15:02 9.2 C 7.86 g/m*3 9.2 C 0 km/h
1207 21-09-2011 01:27:02 9 C 7.76 g/m*3 9 C 0 km/h
1208 21-09-2011 01:39:02 8.9 C 7.8 g/m*3 8.9 C 0 km/h
1209 21-09-2011 01:51:02 9 C 7.76 g/m*3 9 C 0 km/h
1210 21-09-2011 02:03:02 9 C 7.76 g/m*3 9 C 0 km/h
1211 21-09-2011 02:15:02 8.8 C 7.75 g/m*3 8.8 C 0 km/h
1212 21-09-2011 02:27:02 8.7 C 7.7 g/m*3 8.7 C 0 km/h
1213 21-09-2011 02:39:02 8.3 C 7.5 g/m*3 8.3 C 0 km/h
1214 21-09-2011 02:52:03 8.4 C 7.55 g/m*3 8.4 C 0 km/h
1215 21-09-2011 03:04:03 8.4 C 7.55 g/m*3 8.4 C 0 km/h
1216 21-09-2011 03:16:03 8 C 7.36 g/m*3 8 C 0 km/h
1217 21-09-2011 03:28:03 8.2 C 7.45 g/m*3 8.2 C 0 km/h
1218 21-09-2011 03:40:02 7.9 C 7.39 g/m*3 7.9 C 0 km/h
1219 21-09-2011 03:52:02 7.8 C 7.35 g/m*3 7.8 C 0 km/h
1220 21-09-2011 04:04:02 7.7 C 7.3 g/m*3 7.7 C 0 km/h
1221 21-09-2011 04:16:02 7.5 C 7.2 g/m*3 7.5 C 0 km/h
1222 21-09-2011 04:28:03 7.6 C 7.25 g/m*3 7.6 C 0 km/h
1223 21-09-2011 04:40:02 7.8 C 7.35 g/m*3 7.8 C 0 km/h
1224 21-09-2011 04:52:02 7.8 C 7.35 g/m*3 7.8 C 0 km/h
1225 21-09-2011 05:04:01 7.9 C 7.47 g/m*3 7.9 C 0 km/h
Sensor: Nr:Datum:Temp:Abs-Feuchte:Windchill:Wind:
Aussen-T/F 1226 21-09-2011 05:16:02 8.5 C 7.68 g/m*3 8.5 C 0 km/h
1227 21-09-2011 05:28:02 8.4 C 7.63 g/m*3 8.4 C 0 km/h
1228 21-09-2011 05:40:02 8 C 7.44 g/m*3 8 C 0 km/h
1229 21-09-2011 05:52:01 8.6 C 7.82 g/m*3 8.6 C 0 km/h
1230 21-09-2011 06:04:02 9 C 7.93 g/m*3 9 C 0 km/h
1231 21-09-2011 06:16:01 9.1 C 7.99 g/m*3 9.1 C 0 km/h
1232 21-09-2011 06:28:01 9.2 C 8.04 g/m*3 9.2 C 0 km/h
1233 21-09-2011 06:40:02 9.3 C 8.18 g/m*3 9.3 C 0 km/h
1234 21-09-2011 06:52:02 9.3 C 8.18 g/m*3 9.3 C 0 km/h
1235 21-09-2011 07:04:02 9.5 C 8.28 g/m*3 9.5 C 0 km/h
1236 21-09-2011 07:16:01 9.5 C 8.28 g/m*3 9.5 C 0 km/h
1237 21-09-2011 07:28:01 9.5 C 8.28 g/m*3 9.5 C 0 km/h
1238 21-09-2011 07:40:02 9.6 C 8.34 g/m*3 9.6 C 0 km/h
1239 21-09-2011 07:52:01 9.7 C 8.39 g/m*3 9.7 C 0 km/h
1240 21-09-2011 08:04:02 9.7 C 8.39 g/m*3 9.7 C 0 km/h
1241 21-09-2011 08:16:02 9.8 C 8.44 g/m*3 9.8 C 0 km/h
1242 21-09-2011 08:28:02 9.9 C 8.5 g/m*3 9.9 C 0 km/h
1243 21-09-2011 08:40:01 10 C 8.36 g/m*3 10 C 0 km/h
1244 21-09-2011 08:52:02 10.4 C 8.58 g/m*3 10.4 C 0 km/h
1245 21-09-2011 09:04:02 10.8 C 8.8 g/m*3 10.8 C 0 km/h
1246 21-09-2011 09:16:01 11.1 C 8.86 g/m*3 11.1 C 0 km/h
1247 21-09-2011 09:28:01 11.1 C 8.76 g/m*3 11.1 C 0 km/h
1248 21-09-2011 09:40:01 11.9 C 9.11 g/m*3 11.9 C 0 km/h
1249 21-09-2011 09:52:01 12.2 C 8.74 g/m*3 12.2 C 0 km/h
1250 21-09-2011 10:04:01 12.5 C 8.58 g/m*3 12.5 C 0 km/h
Sensor: Nr:Datum:Temp:Abs-Feuchte:Windchill:Wind:
Aussen-T/F 1251 21-09-2011 10:16:02 12.8 C 8.51 g/m*3 12.8 C 0 km/h
1252 21-09-2011 10:28:02 13.2 C 8.27 g/m*3 13.2 C 0 km/h
1253 21-09-2011 10:40:01 13.5 C 8.19 g/m*3 13.5 C 0 km/h
1254 21-09-2011 10:52:02 14.3 C 8.11 g/m*3 14.3 C 0 km/h
1255 21-09-2011 11:04:02 14.3 C 7.99 g/m*3 14.3 C 0 km/h
1256 21-09-2011 11:16:02 13.7 C 8.05 g/m*3 13.7 C 0 km/h
1257 21-09-2011 11:28:02 13.5 C 8.54 g/m*3 13.5 C 0 km/h
1258 21-09-2011 11:40:01 13.9 C 8.87 g/m*3 13.9 C 0 km/h
1259 21-09-2011 11:52:02 14 C 9.17 g/m*3 14 C 0 km/h
1260 21-09-2011 12:04:01 14.5 C 9.08 g/m*3 14.5 C 0 km/h
1261 21-09-2011 12:16:01 14.8 C 9.25 g/m*3 14.8 C 0 km/h
1262 21-09-2011 12:28:01 15.4 C 9.2 g/m*3 15.4 C 0 km/h
1263 21-09-2011 12:40:02 16.1 C 8.36 g/m*3 16.1 C 0 km/h
1264 21-09-2011 12:52:02 16.9 C 8.77 g/m*3 16.9 C 0 km/h
1265 21-09-2011 13:04:02 18 C 8.75 g/m*3 18 C 0 km/h
1266 21-09-2011 13:16:01 19.2 C 7.09 g/m*3 19.2 C 0 km/h
1267 21-09-2011 13:28:01 19.4 C 7.67 g/m*3 19.4 C 0 km/h
1268 21-09-2011 13:40:02 21 C 6.78 g/m*3 21 C 0 km/h
1269 21-09-2011 13:52:02 21.1 C 7.37 g/m*3 21.1 C 0 km/h
1270 21-09-2011 14:04:02 20.3 C 7.21 g/m*3 20.3 C 0 km/h
1271 21-09-2011 14:16:01 19.5 C 7.05 g/m*3 19.5 C 0 km/h
1272 21-09-2011 14:28:01 19.6 C 7.26 g/m*3 19.6 C 0 km/h
1273 21-09-2011 14:40:02 19.7 C 7.3 g/m*3 19.7 C 0 km/h
1274 21-09-2011 14:52:02 20 C 7.09 g/m*3 20 C 0 km/h
1275 21-09-2011 15:04:02 20 C 6.74 g/m*3 20 C 0 km/h
Sensor: Nr:Datum:Temp:Abs-Feuchte:Windchill:Wind:
Aussen-T/F 1276 21-09-2011 15:16:02 19.7 C 6.96 g/m*3 19.7 C 0 km/h
1277 21-09-2011 15:28:02 20.3 C 7.03 g/m*3 20.3 C 0 km/h
1278 21-09-2011 15:40:02 20.6 C 6.8 g/m*3 20.6 C 0 km/h
1279 21-09-2011 15:52:02 23.1 C 7.03 g/m*3 23.1 C 0 km/h
1280 21-09-2011 16:04:02 23.4 C 6.94 g/m*3 23.4 C 0 km/h
1281 21-09-2011 16:16:02 22.9 C 6.54 g/m*3 22.9 C 0 km/h
1282 21-09-2011 16:28:02 23.5 C 6.77 g/m*3 23.5 C 0 km/h
1283 21-09-2011 16:40:01 23.7 C 6.63 g/m*3 23.7 C 0 km/h
1284 21-09-2011 16:52:02 23.2 C 6.65 g/m*3 23.2 C 0 km/h
1285 21-09-2011 17:04:02 20.8 C 6.88 g/m*3 20.8 C 0 km/h
1286 21-09-2011 17:16:02 20.1 C 7.3 g/m*3 20.1 C 0 km/h
1287 21-09-2011 17:28:03 19.4 C 7.67 g/m*3 19.4 C 0 km/h
1288 21-09-2011 17:40:01 19.5 C 7.38 g/m*3 19.5 C 0 km/h
1289 21-09-2011 17:52:02 19.1 C 6.72 g/m*3 19.1 C 0 km/h
1290 21-09-2011 18:04:01 19.1 C 6.88 g/m*3 19.1 C 0 km/h
1291 21-09-2011 18:16:01 20.4 C 7.08 g/m*3 20.4 C 0 km/h
1292 21-09-2011 18:28:01 19 C 6.84 g/m*3 19 C 0 km/h
1293 21-09-2011 18:40:02 17.3 C 7.37 g/m*3 17.3 C 0 km/h
1294 21-09-2011 18:52:02 16.3 C 7.77 g/m*3 16.3 C 0 km/h
1295 21-09-2011 19:04:02 16.2 C 8.14 g/m*3 16.2 C 0 km/h
1296 21-09-2011 19:16:02 16.2 C 7.86 g/m*3 16.2 C 0 km/h
1297 21-09-2011 19:28:02 16.2 C 8.14 g/m*3 16.2 C 0 km/h
1298 21-09-2011 19:40:02 15.6 C 8.38 g/m*3 15.6 C 0 km/h
1299 21-09-2011 19:52:02 15.4 C 8.41 g/m*3 15.4 C 0 km/h
1300 21-09-2011 20:04:02 15.4 C 8.54 g/m*3 15.4 C 0 km/h
Sensor: Nr:Datum:Temp:Abs-Feuchte:Windchill:Wind:
Aussen-T/F 1301 21-09-2011 20:16:02 15.4 C 8.67 g/m*3 15.4 C 0 km/h
1302 21-09-2011 20:28:02 15.4 C 8.54 g/m*3 15.4 C 0 km/h
1303 21-09-2011 20:40:02 15.3 C 8.62 g/m*3 15.3 C 0 km/h
1304 21-09-2011 20:52:01 15.4 C 8.67 g/m*3 15.4 C 0 km/h
1305 21-09-2011 21:04:02 15.3 C 8.62 g/m*3 15.3 C 0 km/h
1306 21-09-2011 21:16:02 15.4 C 8.67 g/m*3 15.4 C 0 km/h
1307 21-09-2011 21:28:02 15.4 C 8.67 g/m*3 15.4 C 0 km/h
1308 21-09-2011 21:40:01 15.1 C 8.51 g/m*3 15.1 C 0 km/h
1309 21-09-2011 21:52:02 14.4 C 8.41 g/m*3 14.4 C 0 km/h
1310 21-09-2011 22:04:03 14 C 8.44 g/m*3 14 C 0 km/h
1311 21-09-2011 22:16:02 13.8 C 8.58 g/m*3 13.8 C 0 km/h
1312 21-09-2011 22:28:02 13.5 C 8.42 g/m*3 13.5 C 0 km/h
1313 21-09-2011 22:40:02 13.4 C 8.49 g/m*3 13.4 C 0 km/h
1314 21-09-2011 22:52:02 13.4 C 8.6 g/m*3 13.4 C 0 km/h
1315 21-09-2011 23:04:02 13.6 C 8.71 g/m*3 13.6 C 0 km/h
1316 21-09-2011 23:16:02 14 C 8.68 g/m*3 14 C 0 km/h
1317 21-09-2011 23:28:02 14.3 C 8.85 g/m*3 14.3 C 0 km/h
1318 21-09-2011 23:40:02 15 C 8.46 g/m*3 15 C 0 km/h
1319 21-09-2011 23:52:02 15 C 8.59 g/m*3 15 C 0 km/h
1320 22-09-2011 00:04:01 15 C 8.59 g/m*3 15 C 0 km/h
1321 22-09-2011 00:16:02 15.1 C 8.77 g/m*3 15.1 C 0 km/h
1322 22-09-2011 00:28:02 15.9 C 8.4 g/m*3 15.9 C 0 km/h
1323 22-09-2011 00:40:01 15.7 C 8.3 g/m*3 15.7 C 0 km/h
1324 22-09-2011 00:52:02 15.3 C 8.36 g/m*3 15.3 C 0 km/h
1325 22-09-2011 01:04:01 15.1 C 8.51 g/m*3 15.1 C 0 km/h
Sensor: Nr:Datum:Temp:Abs-Feuchte:Windchill:Wind:
Aussen-T/F 1326 22-09-2011 01:16:02 15.4 C 8.41 g/m*3 15.4 C 0 km/h
1327 22-09-2011 01:28:02 15.5 C 8.33 g/m*3 15.5 C 0 km/h
1328 22-09-2011 01:40:01 15.3 C 8.36 g/m*3 15.3 C 0 km/h
1329 22-09-2011 01:52:02 15.4 C 8.28 g/m*3 15.4 C 0 km/h
1330 22-09-2011 02:04:02 14.9 C 8.67 g/m*3 14.9 C 0 km/h
1331 22-09-2011 02:16:02 14.9 C 8.67 g/m*3 14.9 C 0 km/h
1332 22-09-2011 02:28:02 15.1 C 8.39 g/m*3 15.1 C 0 km/h
1333 22-09-2011 02:40:02 15.1 C 8.26 g/m*3 15.1 C 0 km/h
1334 22-09-2011 02:52:01 15 C 8.33 g/m*3 15 C 0 km/h
1335 22-09-2011 03:04:01 14.8 C 8.49 g/m*3 14.8 C 0 km/h
1336 22-09-2011 03:16:02 14.9 C 8.54 g/m*3 14.9 C 0 km/h
1337 22-09-2011 03:28:02 15.2 C 8.44 g/m*3 15.2 C 0 km/h
1338 22-09-2011 03:40:01 14.8 C 8.49 g/m*3 14.8 C 0 km/h
1339 22-09-2011 03:52:01 15.4 C 8.41 g/m*3 15.4 C 0 km/h
1340 22-09-2011 04:04:01 15.1 C 8.39 g/m*3 15.1 C 0 km/h
1341 22-09-2011 04:16:01 14.6 C 8.51 g/m*3 14.6 C 0 km/h
1342 22-09-2011 04:28:01 14.7 C 8.56 g/m*3 14.7 C 0 km/h
1343 22-09-2011 04:40:02 14.4 C 8.53 g/m*3 14.4 C 0 km/h
1344 22-09-2011 04:52:01 14.1 C 8.5 g/m*3 14.1 C 0 km/h
1345 22-09-2011 05:04:02 13.8 C 8.82 g/m*3 13.8 C 0 km/h
1346 22-09-2011 05:16:01 14.4 C 8.65 g/m*3 14.4 C 0 km/h
1347 22-09-2011 05:28:01 14.5 C 8.71 g/m*3 14.5 C 0 km/h
1348 22-09-2011 05:40:01 14.3 C 8.72 g/m*3 14.3 C 0 km/h
1349 22-09-2011 05:52:01 14.3 C 8.85 g/m*3 14.3 C 0 km/h
1350 22-09-2011 06:04:01 14.3 C 8.72 g/m*3 14.3 C 0 km/h
Sensor: Nr:Datum:Temp:Abs-Feuchte:Windchill:Wind:
Aussen-T/F 1351 22-09-2011 06:16:02 14.4 C 8.65 g/m*3 14.4 C 0 km/h
1352 22-09-2011 06:28:02 14.4 C 8.65 g/m*3 14.4 C 0 km/h
1353 22-09-2011 06:40:01 14.1 C 8.74 g/m*3 14.1 C 0 km/h
1354 22-09-2011 06:52:02 14.2 C 8.67 g/m*3 14.2 C 0 km/h
1355 22-09-2011 07:04:01 14.4 C 8.65 g/m*3 14.4 C 0 km/h
1356 22-09-2011 07:16:01 14.4 C 8.65 g/m*3 14.4 C 0 km/h
1357 22-09-2011 07:28:01 14.5 C 8.71 g/m*3 14.5 C 0 km/h
1358 22-09-2011 07:40:02 14.2 C 8.67 g/m*3 14.2 C 0 km/h
1359 22-09-2011 07:52:01 14.2 C 8.91 g/m*3 14.2 C 0 km/h
1360 22-09-2011 08:04:02 13.8 C 8.82 g/m*3 13.8 C 0 km/h
1361 22-09-2011 08:16:01 13.3 C 8.9 g/m*3 13.3 C 0 km/h
1362 22-09-2011 08:28:01 13.9 C 9.35 g/m*3 13.9 C 0 km/h
1363 22-09-2011 08:40:01 14.1 C 8.98 g/m*3 14.1 C 0 km/h
1364 22-09-2011 08:52:01 13.9 C 8.87 g/m*3 13.9 C 0 km/h
1365 22-09-2011 09:04:01 13.3 C 8.9 g/m*3 13.3 C 0 km/h
1366 22-09-2011 09:16:02 13.1 C 9.01 g/m*3 13.1 C 0 km/h
1367 22-09-2011 09:28:02 13.4 C 9.3 g/m*3 13.4 C 0 km/h
1368 22-09-2011 09:40:01 13.8 C 9.53 g/m*3 13.8 C 0 km/h
1369 22-09-2011 09:52:02 15.2 C 8.96 g/m*3 15.2 C 0 km/h
1370 22-09-2011 10:04:01 15 C 8.72 g/m*3 15 C 0 km/h
1371 22-09-2011 10:16:02 15.6 C 8.38 g/m*3 15.6 C 0 km/h
1372 22-09-2011 10:28:02 15.5 C 8.33 g/m*3 15.5 C 0 km/h
1373 22-09-2011 10:40:01 15.4 C 8.28 g/m*3 15.4 C 0 km/h
1374 22-09-2011 10:52:02 15.8 C 8.48 g/m*3 15.8 C 0 km/h
1375 22-09-2011 11:04:01 16.3 C 7.77 g/m*3 16.3 C 0 km/h
Sensor: Nr:Datum:Temp:Abs-Feuchte:Windchill:Wind:
Aussen-T/F 1376 22-09-2011 11:16:01 16.9 C 7.19 g/m*3 16.9 C 0 km/h
1377 22-09-2011 11:28:01 17.8 C 6.98 g/m*3 17.8 C 0 km/h
1378 22-09-2011 11:40:02 18.1 C 6.64 g/m*3 18.1 C 0 km/h
1379 22-09-2011 11:52:01 18.2 C 6.53 g/m*3 18.2 C 0 km/h
1380 22-09-2011 12:04:02 18.4 C 6.45 g/m*3 18.4 C 0 km/h
1381 22-09-2011 12:16:01 18.4 C 6.13 g/m*3 18.4 C 0 km/h
1382 22-09-2011 12:28:01 17.7 C 6.19 g/m*3 17.7 C 0 km/h
1383 22-09-2011 12:40:01 18.1 C 6.18 g/m*3 18.1 C 0 km/h
1384 22-09-2011 12:52:01 17.8 C 6.22 g/m*3 17.8 C 0 km/h
1385 22-09-2011 13:04:01 18.4 C 5.98 g/m*3 18.4 C 0 km/h
1386 22-09-2011 13:16:01 18.1 C 5.41 g/m*3 18.1 C 0 km/h
1387 22-09-2011 13:28:01 18.1 C 5.56 g/m*3 18.1 C 0 km/h
1388 22-09-2011 13:40:01 20.2 C 5.94 g/m*3 20.2 C 0 km/h
1389 22-09-2011 13:52:01 20.3 C 5.45 g/m*3 20.3 C 0 km/h
1390 22-09-2011 14:04:01 19.8 C 5.47 g/m*3 19.8 C 0 km/h
1391 22-09-2011 14:16:02 20 C 5.7 g/m*3 20 C 0 km/h
1392 22-09-2011 14:28:02 20.1 C 5.56 g/m*3 20.1 C 0 km/h
1393 22-09-2011 14:40:01 20.4 C 5.66 g/m*3 20.4 C 0 km/h
1394 22-09-2011 14:52:02 20.2 C 5.42 g/m*3 20.2 C 0 km/h
1395 22-09-2011 15:04:01 19.9 C 5.33 g/m*3 19.9 C 0 km/h
1396 22-09-2011 15:16:01 20 C 5.53 g/m*3 20 C 0 km/h
1397 22-09-2011 15:28:01 21 C 5.5 g/m*3 21 C 0 km/h
1398 22-09-2011 15:40:02 21 C 5.31 g/m*3 21 C 0 km/h
1399 22-09-2011 15:52:01 20.3 C 5.28 g/m*3 20.3 C 0 km/h
1400 22-09-2011 16:04:02 20 C 6.22 g/m*3 20 C 0 km/h
Sensor: Nr:Datum:Temp:Abs-Feuchte:Windchill:Wind:
Aussen-T/F 1401 22-09-2011 16:17:01 19.7 C 6.11 g/m*3 19.7 C 0 km/h
1402 22-09-2011 16:29:01 19.8 C 6.32 g/m*3 19.8 C 0 km/h
1403 22-09-2011 16:40:02 19.8 C 6.32 g/m*3 19.8 C 0 km/h
1404 22-09-2011 16:53:01 19.4 C 6.17 g/m*3 19.4 C 0 km/h
1405 22-09-2011 17:04:02 19 C 6.52 g/m*3 19 C 0 km/h
1406 22-09-2011 17:17:01 18.7 C 7.84 g/m*3 18.7 C 0 km/h
1407 22-09-2011 17:29:01 18.4 C 6.92 g/m*3 18.4 C 0 km/h
1408 22-09-2011 17:41:01 18.2 C 7.46 g/m*3 18.2 C 0 km/h
1409 22-09-2011 17:53:01 17.5 C 8.35 g/m*3 17.5 C 0 km/h
1410 22-09-2011 18:05:01 17.3 C 7.51 g/m*3 17.3 C 0 km/h
1411 22-09-2011 18:17:02 17.3 C 7.37 g/m*3 17.3 C 0 km/h
1412 22-09-2011 18:29:02 17 C 7.81 g/m*3 17 C 0 km/h
1413 22-09-2011 18:41:01 16.7 C 7.96 g/m*3 16.7 C 0 km/h
1414 22-09-2011 18:53:02 16.1 C 7.68 g/m*3 16.1 C 0 km/h
1415 22-09-2011 19:05:01 15.9 C 7.85 g/m*3 15.9 C 0 km/h
1416 22-09-2011 19:17:01 15.7 C 7.89 g/m*3 15.7 C 0 km/h
1417 22-09-2011 19:29:02 15.6 C 7.98 g/m*3 15.6 C 0 km/h
1418 22-09-2011 19:41:01 15.4 C 8.01 g/m*3 15.4 C 0 km/h
1419 22-09-2011 19:53:02 15 C 7.69 g/m*3 15 C 0 km/h
1420 22-09-2011 20:05:01 14.9 C 7.77 g/m*3 14.9 C 0 km/h
1421 22-09-2011 20:17:01 15 C 7.82 g/m*3 15 C 0 km/h
1422 22-09-2011 20:29:01 14.7 C 7.81 g/m*3 14.7 C 0 km/h
1423 22-09-2011 20:41:02 14.1 C 7.65 g/m*3 14.1 C 0 km/h
1424 22-09-2011 20:53:01 13.5 C 7.72 g/m*3 13.5 C 0 km/h
1425 22-09-2011 21:05:02 13.3 C 7.86 g/m*3 13.3 C 0 km/h
Sensor: Nr:Datum:Temp:Abs-Feuchte:Windchill:Wind:
Aussen-T/F 1426 22-09-2011 21:17:01 12.8 C 7.95 g/m*3 12.8 C 0 km/h
1427 22-09-2011 21:29:01 12.5 C 8.14 g/m*3 12.5 C 0 km/h
1428 22-09-2011 21:41:01 12.7 C 8.24 g/m*3 12.7 C 0 km/h
1429 22-09-2011 21:53:01 13 C 8.17 g/m*3 13 C 0 km/h
1430 22-09-2011 22:05:02 13.2 C 8.15 g/m*3 13.2 C 0 km/h
1431 22-09-2011 22:17:01 12.9 C 8.11 g/m*3 12.9 C 0 km/h
1432 22-09-2011 22:29:01 12.6 C 8.08 g/m*3 12.6 C 0 km/h
1433 22-09-2011 22:41:01 12.7 C 8.24 g/m*3 12.7 C 0 km/h
1434 22-09-2011 22:53:01 12.6 C 8.19 g/m*3 12.6 C 0 km/h
1435 22-09-2011 23:06:01 12.6 C 8.19 g/m*3 12.6 C 0 km/h
1436 22-09-2011 23:18:01 12.4 C 8.19 g/m*3 12.4 C 0 km/h
1437 22-09-2011 23:30:01 11.9 C 8.15 g/m*3 11.9 C 0 km/h
1438 22-09-2011 23:42:01 11.7 C 8.26 g/m*3 11.7 C 0 km/h
1439 22-09-2011 23:54:01 11.7 C 8.37 g/m*3 11.7 C 0 km/h
1440 23-09-2011 00:06:01 11.6 C 8.42 g/m*3 11.6 C 0 km/h
1441 23-09-2011 00:18:01 11.4 C 8.31 g/m*3 11.4 C 0 km/h
1442 23-09-2011 00:30:01 11.1 C 8.16 g/m*3 11.1 C 0 km/h
1443 23-09-2011 00:42:01 11.1 C 8.26 g/m*3 11.1 C 0 km/h
1444 23-09-2011 00:54:01 11.9 C 8.79 g/m*3 11.9 C 0 km/h
1445 23-09-2011 01:06:01 12.2 C 8.85 g/m*3 12.2 C 0 km/h
1446 23-09-2011 01:18:01 12.5 C 8.58 g/m*3 12.5 C 0 km/h
1447 23-09-2011 01:30:01 12.6 C 8.41 g/m*3 12.6 C 0 km/h
1448 23-09-2011 01:42:01 12.5 C 8.25 g/m*3 12.5 C 0 km/h
1449 23-09-2011 01:54:01 12.7 C 8.24 g/m*3 12.7 C 0 km/h
1450 23-09-2011 02:06:01 12.6 C 8.3 g/m*3 12.6 C 0 km/h
Sensor: Nr:Datum:Temp:Abs-Feuchte:Windchill:Wind:
Aussen-T/F 1451 23-09-2011 02:18:01 12.5 C 8.25 g/m*3 12.5 C 0 km/h
1452 23-09-2011 02:30:01 12.5 C 8.14 g/m*3 12.5 C 0 km/h
1453 23-09-2011 02:42:02 12.5 C 8.14 g/m*3 12.5 C 0 km/h
1454 23-09-2011 02:54:02 12.4 C 8.09 g/m*3 12.4 C 0 km/h
1455 23-09-2011 03:06:02 12.4 C 8.09 g/m*3 12.4 C 0 km/h
1456 23-09-2011 03:18:02 12.5 C 8.03 g/m*3 12.5 C 0 km/h
1457 23-09-2011 03:30:02 12 C 7.99 g/m*3 12 C 0 km/h
1458 23-09-2011 03:42:02 11.8 C 8.1 g/m*3 11.8 C 0 km/h
1459 23-09-2011 03:54:02 12.1 C 8.04 g/m*3 12.1 C 0 km/h
1460 23-09-2011 04:06:02 12.1 C 8.04 g/m*3 12.1 C 0 km/h
1461 23-09-2011 04:18:02 12 C 7.99 g/m*3 12 C 0 km/h
1462 23-09-2011 04:30:02 11.9 C 8.05 g/m*3 11.9 C 0 km/h
1463 23-09-2011 04:42:02 11.4 C 8.01 g/m*3 11.4 C 0 km/h
1464 23-09-2011 04:54:02 11.4 C 8.11 g/m*3 11.4 C 0 km/h
1465 23-09-2011 05:06:02 11.3 C 8.16 g/m*3 11.3 C 0 km/h
1466 23-09-2011 05:18:02 11.3 C 8.26 g/m*3 11.3 C 0 km/h
1467 23-09-2011 05:30:02 11.2 C 8.21 g/m*3 11.2 C 0 km/h
1468 23-09-2011 05:42:02 11.4 C 8.31 g/m*3 11.4 C 0 km/h
1469 23-09-2011 05:54:02 11.3 C 8.26 g/m*3 11.3 C 0 km/h
1470 23-09-2011 06:06:02 11.2 C 8.21 g/m*3 11.2 C 0 km/h
1471 23-09-2011 06:18:02 11.3 C 8.26 g/m*3 11.3 C 0 km/h
1472 23-09-2011 06:30:02 11.2 C 8.21 g/m*3 11.2 C 0 km/h
1473 23-09-2011 06:42:02 11.3 C 8.26 g/m*3 11.3 C 0 km/h
1474 23-09-2011 06:54:03 11.3 C 8.26 g/m*3 11.3 C 0 km/h
1475 23-09-2011 07:06:03 11 C 8.11 g/m*3 11 C 0 km/h
Sensor: Nr:Datum:Temp:Abs-Feuchte:Windchill:Wind:
Aussen-T/F 1476 23-09-2011 07:18:03 10.8 C 8.11 g/m*3 10.8 C 0 km/h
1477 23-09-2011 07:30:03 10.8 C 8.2 g/m*3 10.8 C 0 km/h
1478 23-09-2011 07:42:03 11 C 8.31 g/m*3 11 C 0 km/h
1479 23-09-2011 07:54:02 11.1 C 8.26 g/m*3 11.1 C 0 km/h
1480 23-09-2011 08:06:02 11.2 C 8.21 g/m*3 11.2 C 0 km/h
1481 23-09-2011 08:18:02 11.3 C 8.16 g/m*3 11.3 C 0 km/h
1482 23-09-2011 08:30:02 11.5 C 8.16 g/m*3 11.5 C 0 km/h
1483 23-09-2011 08:42:02 11.7 C 8.16 g/m*3 11.7 C 0 km/h
1484 23-09-2011 08:54:01 12 C 8.1 g/m*3 12 C 0 km/h
1485 23-09-2011 09:06:01 12.3 C 8.04 g/m*3 12.3 C 0 km/h
1486 23-09-2011 09:18:01 12.5 C 8.03 g/m*3 12.5 C 0 km/h
1487 23-09-2011 09:30:01 12.8 C 8.06 g/m*3 12.8 C 0 km/h
1488 23-09-2011 09:42:01 13 C 7.94 g/m*3 13 C 0 km/h
1489 23-09-2011 09:54:02 13.2 C 7.92 g/m*3 13.2 C 0 km/h
1490 23-09-2011 10:06:02 13.4 C 7.9 g/m*3 13.4 C 0 km/h
1491 23-09-2011 10:18:01 13.4 C 8.02 g/m*3 13.4 C 0 km/h
1492 23-09-2011 10:30:01 13.1 C 7.87 g/m*3 13.1 C 0 km/h
1493 23-09-2011 10:42:01 13.3 C 8.09 g/m*3 13.3 C 0 km/h
1494 23-09-2011 10:54:01 13.2 C 8.04 g/m*3 13.2 C 0 km/h
1495 23-09-2011 11:06:01 13.6 C 8.36 g/m*3 13.6 C 0 km/h
1496 23-09-2011 11:18:02 13.9 C 8.39 g/m*3 13.9 C 0 km/h
1497 23-09-2011 11:30:02 14.2 C 8.43 g/m*3 14.2 C 0 km/h
1498 23-09-2011 11:42:01 14.2 C 8.79 g/m*3 14.2 C 0 km/h
1499 23-09-2011 11:54:02 14.8 C 8.11 g/m*3 14.8 C 0 km/h
1500 23-09-2011 12:06:02 15.2 C 7.92 g/m*3 15.2 C 0 km/h
Sensor: Nr:Datum:Temp:Abs-Feuchte:Windchill:Wind:
Aussen-T/F 1501 23-09-2011 12:18:02 15.4 C 8.54 g/m*3 15.4 C 0 km/h
1502 23-09-2011 12:30:03 15.5 C 8.59 g/m*3 15.5 C 0 km/h
1503 23-09-2011 12:42:01 15.9 C 9.07 g/m*3 15.9 C 0 km/h
1504 23-09-2011 12:54:02 16.8 C 7.29 g/m*3 16.8 C 0 km/h
1505 23-09-2011 13:06:01 17.6 C 6.45 g/m*3 17.6 C 0 km/h
1506 23-09-2011 13:18:01 17.1 C 8.15 g/m*3 17.1 C 0 km/h
1507 23-09-2011 13:30:01 16.8 C 8.01 g/m*3 16.8 C 0 km/h
1508 23-09-2011 13:42:02 16.5 C 8.14 g/m*3 16.5 C 0 km/h
1509 23-09-2011 13:54:02 17 C 7.67 g/m*3 17 C 0 km/h
1510 23-09-2011 14:06:02 17.8 C 5.92 g/m*3 17.8 C 0 km/h
1511 23-09-2011 14:18:02 17.8 C 7.29 g/m*3 17.8 C 0 km/h
1512 23-09-2011 14:30:02 18.8 C 6.6 g/m*3 18.8 C 0 km/h
1513 23-09-2011 14:42:02 19.3 C 6.3 g/m*3 19.3 C 0 km/h
1514 23-09-2011 14:54:02 20 C 6.05 g/m*3 20 C 0 km/h
1515 23-09-2011 15:06:02 20.9 C 6.01 g/m*3 20.9 C 0 km/h
1516 23-09-2011 15:18:03 20.8 C 5.61 g/m*3 20.8 C 0 km/h
1517 23-09-2011 15:30:03 20.4 C 5.84 g/m*3 20.4 C 0 km/h
1518 23-09-2011 15:42:02 22.1 C 5.66 g/m*3 22.1 C 0 km/h
1519 23-09-2011 15:54:02 21 C 5.31 g/m*3 21 C 0 km/h
1520 23-09-2011 16:06:02 22.6 C 5.42 g/m*3 22.6 C 0 km/h
1521 23-09-2011 16:18:02 23.3 C 5.23 g/m*3 23.3 C 0 km/h
1522 23-09-2011 16:30:02 24.1 C 4.81 g/m*3 24.1 C 0 km/h
1523 23-09-2011 16:42:02 26.4 C 6.22 g/m*3 26.4 C 0 km/h
1524 23-09-2011 16:54:02 25.2 C 5.12 g/m*3 25.2 C 0 km/h
1525 23-09-2011 17:06:01 26.2 C 6.4 g/m*3 26.2 C 0 km/h
Sensor: Nr:Datum:Temp:Abs-Feuchte:Windchill:Wind:
Aussen-T/F 1526 23-09-2011 17:18:02 24.6 C 6.08 g/m*3 24.6 C 0 km/h
1527 23-09-2011 17:30:02 25.2 C 6.05 g/m*3 25.2 C 0 km/h
1528 23-09-2011 17:42:02 24.6 C 6.53 g/m*3 24.6 C 0 km/h
1529 23-09-2011 17:54:01 23.8 C 6.45 g/m*3 23.8 C 0 km/h
1530 23-09-2011 18:06:02 23.6 C 6.81 g/m*3 23.6 C 0 km/h
1531 23-09-2011 18:18:01 22 C 6.79 g/m*3 22 C 0 km/h
1532 23-09-2011 18:30:01 19 C 6.68 g/m*3 19 C 0 km/h
1533 23-09-2011 18:42:02 17.9 C 6.87 g/m*3 17.9 C 0 km/h
1534 23-09-2011 18:54:02 16.2 C 6.76 g/m*3 16.2 C 0 km/h
1535 23-09-2011 19:06:02 15.6 C 6.52 g/m*3 15.6 C 0 km/h
1536 23-09-2011 19:18:01 15.2 C 6.36 g/m*3 15.2 C 0 km/h
1537 23-09-2011 19:30:01 14.3 C 6.51 g/m*3 14.3 C 0 km/h
1538 23-09-2011 19:42:02 13.8 C 6.67 g/m*3 13.8 C 0 km/h
1539 23-09-2011 19:54:01 12.9 C 6.76 g/m*3 12.9 C 0 km/h
1540 23-09-2011 20:06:02 12.6 C 7.08 g/m*3 12.6 C 0 km/h
1541 23-09-2011 20:18:02 11.8 C 6.95 g/m*3 11.8 C 0 km/h
1542 23-09-2011 20:30:02 11.4 C 6.77 g/m*3 11.4 C 0 km/h
1543 23-09-2011 20:42:02 11.1 C 6.85 g/m*3 11.1 C 0 km/h
1544 23-09-2011 20:54:02 11 C 7.11 g/m*3 11 C 0 km/h
1545 23-09-2011 21:06:01 10.7 C 7.17 g/m*3 10.7 C 0 km/h
1546 23-09-2011 21:18:02 10.4 C 7.13 g/m*3 10.4 C 0 km/h
1547 23-09-2011 21:30:02 10.2 C 7.14 g/m*3 10.2 C 0 km/h
1548 23-09-2011 21:42:01 10.1 C 7.28 g/m*3 10.1 C 0 km/h
1549 23-09-2011 21:54:02 9.8 C 7.33 g/m*3 9.8 C 0 km/h
1550 23-09-2011 22:06:02 9.7 C 7.28 g/m*3 9.7 C 0 km/h
Sensor: Nr:Datum:Temp:Abs-Feuchte:Windchill:Wind:
Aussen-T/F 1551 23-09-2011 22:18:02 9.4 C 7.15 g/m*3 9.4 C 0 km/h
1552 23-09-2011 22:30:02 9.2 C 7.14 g/m*3 9.2 C 0 km/h
1553 23-09-2011 22:42:03 9.1 C 7.19 g/m*3 9.1 C 0 km/h
1554 23-09-2011 22:54:02 9.2 C 7.32 g/m*3 9.2 C 0 km/h
1555 23-09-2011 23:06:02 8.8 C 7.22 g/m*3 8.8 C 0 km/h
1556 23-09-2011 23:18:01 8.7 C 7.26 g/m*3 8.7 C 0 km/h
1557 23-09-2011 23:30:01 8.6 C 7.22 g/m*3 8.6 C 0 km/h
1558 23-09-2011 23:42:02 8.2 C 7.03 g/m*3 8.2 C 0 km/h
1559 23-09-2011 23:54:02 8.1 C 7.07 g/m*3 8.1 C 0 km/h
1560 24-09-2011 00:06:02 8 C 7.03 g/m*3 8 C 0 km/h
1561 24-09-2011 00:18:02 7.8 C 7.02 g/m*3 7.8 C 0 km/h
1562 24-09-2011 00:30:02 8 C 7.03 g/m*3 8 C 0 km/h
1563 24-09-2011 00:42:02 8 C 7.11 g/m*3 8 C 0 km/h
1564 24-09-2011 00:54:02 7.9 C 7.15 g/m*3 7.9 C 0 km/h
1565 24-09-2011 01:06:02 7.5 C 7.04 g/m*3 7.5 C 0 km/h
1566 24-09-2011 01:18:02 7.6 C 7.09 g/m*3 7.6 C 0 km/h
1567 24-09-2011 01:30:02 7.3 C 6.95 g/m*3 7.3 C 0 km/h
1568 24-09-2011 01:42:01 7.4 C 6.92 g/m*3 7.4 C 0 km/h
1569 24-09-2011 01:54:02 7.4 C 7 g/m*3 7.4 C 0 km/h
1570 24-09-2011 02:06:01 7.2 C 6.91 g/m*3 7.2 C 0 km/h
1571 24-09-2011 02:18:02 6.9 C 6.85 g/m*3 6.9 C 0 km/h
1572 24-09-2011 02:30:02 7 C 6.82 g/m*3 7 C 0 km/h
1573 24-09-2011 02:42:01 7 C 6.82 g/m*3 7 C 0 km/h
1574 24-09-2011 02:55:03 6.6 C 6.72 g/m*3 6.6 C 0 km/h
1575 24-09-2011 03:07:03 6.8 C 6.81 g/m*3 6.8 C 0 km/h
Sensor: Nr:Datum:Temp:Abs-Feuchte:Windchill:Wind:
Aussen-T/F 1576 24-09-2011 03:19:03 6.7 C 6.76 g/m*3 6.7 C 0 km/h
1577 24-09-2011 03:31:02 6.4 C 6.63 g/m*3 6.4 C 0 km/h
1578 24-09-2011 03:43:02 6.3 C 6.59 g/m*3 6.3 C 0 km/h
1579 24-09-2011 03:55:02 6.2 C 6.55 g/m*3 6.2 C 0 km/h
1580 24-09-2011 04:07:01 6.5 C 6.67 g/m*3 6.5 C 0 km/h
1581 24-09-2011 04:19:02 6.2 C 6.55 g/m*3 6.2 C 0 km/h
1582 24-09-2011 04:31:02 6.4 C 6.71 g/m*3 6.4 C 0 km/h
1583 24-09-2011 04:43:02 6.1 C 6.5 g/m*3 6.1 C 0 km/h
1584 24-09-2011 04:55:01 5.9 C 6.49 g/m*3 5.9 C 0 km/h
1585 24-09-2011 05:07:02 5.9 C 6.49 g/m*3 5.9 C 0 km/h
1586 24-09-2011 05:19:01 6.3 C 6.66 g/m*3 6.3 C 0 km/h
1587 24-09-2011 05:31:02 5.9 C 6.49 g/m*3 5.9 C 0 km/h
1588 24-09-2011 05:43:03 5.7 C 6.4 g/m*3 5.7 C 0 km/h
1589 24-09-2011 05:55:02 5.7 C 6.4 g/m*3 5.7 C 0 km/h
1590 24-09-2011 06:07:02 5.5 C 6.32 g/m*3 5.5 C 0 km/h
1591 24-09-2011 06:19:01 5.7 C 6.4 g/m*3 5.7 C 0 km/h
1592 24-09-2011 06:31:02 6.2 C 6.62 g/m*3 6.2 C 0 km/h
1593 24-09-2011 06:43:02 6.4 C 6.78 g/m*3 6.4 C 0 km/h
1594 24-09-2011 06:55:01 6.8 C 6.96 g/m*3 6.8 C 0 km/h
1595 24-09-2011 07:07:02 7 C 6.97 g/m*3 7 C 0 km/h
1596 24-09-2011 07:19:02 7 C 7.05 g/m*3 7 C 0 km/h
1597 24-09-2011 07:31:01 7 C 7.05 g/m*3 7 C 0 km/h
1598 24-09-2011 07:43:01 7 C 7.05 g/m*3 7 C 0 km/h
1599 24-09-2011 07:55:02 6.9 C 7.08 g/m*3 6.9 C 0 km/h
1600 24-09-2011 08:07:01 7.1 C 7.1 g/m*3 7.1 C 0 km/h
Sensor: Nr:Datum:Temp:Abs-Feuchte:Windchill:Wind:
Aussen-T/F 1601 24-09-2011 08:19:02 7.1 C 7.1 g/m*3 7.1 C 0 km/h
1602 24-09-2011 08:31:02 7.2 C 7.14 g/m*3 7.2 C 0 km/h
1603 24-09-2011 08:43:02 7.4 C 7.32 g/m*3 7.4 C 0 km/h
1604 24-09-2011 08:55:02 7.5 C 7.28 g/m*3 7.5 C 0 km/h
1605 24-09-2011 09:07:02 7.9 C 7.47 g/m*3 7.9 C 0 km/h
1606 24-09-2011 09:19:02 7.9 C 7.47 g/m*3 7.9 C 0 km/h
1607 24-09-2011 09:31:03 8.1 C 7.49 g/m*3 8.1 C 0 km/h
1608 24-09-2011 09:43:03 8.2 C 7.54 g/m*3 8.2 C 0 km/h
1609 24-09-2011 09:55:02 8.2 C 7.45 g/m*3 8.2 C 0 km/h
1610 24-09-2011 10:07:01 8.2 C 7.45 g/m*3 8.2 C 0 km/h
1611 24-09-2011 10:19:01 8.4 C 7.55 g/m*3 8.4 C 0 km/h
1612 24-09-2011 10:31:02 8.8 C 7.75 g/m*3 8.8 C 0 km/h
1613 24-09-2011 10:43:02 9.2 C 7.86 g/m*3 9.2 C 0 km/h
1614 24-09-2011 10:55:02 9.7 C 8.2 g/m*3 9.7 C 0 km/h
1615 24-09-2011 11:07:02 10 C 8.27 g/m*3 10 C 0 km/h
1616 24-09-2011 11:19:01 10.5 C 8.53 g/m*3 10.5 C 0 km/h
1617 24-09-2011 11:31:02 11.2 C 8.82 g/m*3 11.2 C 0 km/h
1618 24-09-2011 11:43:02 12.1 C 9.22 g/m*3 12.1 C 0 km/h
1619 24-09-2011 11:55:01 12.6 C 9.29 g/m*3 12.6 C 0 km/h
1620 24-09-2011 12:07:02 13 C 9.41 g/m*3 13 C 0 km/h
1621 24-09-2011 12:19:02 13.5 C 9.71 g/m*3 13.5 C 0 km/h
1622 24-09-2011 12:31:01 14.3 C 9.95 g/m*3 14.3 C 0 km/h
1623 24-09-2011 12:43:01 14.8 C 9.75 g/m*3 14.8 C 0 km/h
1624 24-09-2011 12:55:01 15.1 C 9.68 g/m*3 15.1 C 0 km/h
1625 24-09-2011 13:07:01 16 C 9.54 g/m*3 16 C 0 km/h
Sensor: Nr:Datum:Temp:Abs-Feuchte:Windchill:Wind:
Aussen-T/F 1626 24-09-2011 13:19:02 17.2 C 8.79 g/m*3 17.2 C 0 km/h
1627 24-09-2011 13:31:01 17.5 C 9.24 g/m*3 17.5 C 0 km/h
1628 24-09-2011 13:43:01 18.4 C 8.81 g/m*3 18.4 C 0 km/h
1629 24-09-2011 13:55:02 19.1 C 8.2 g/m*3 19.1 C 0 km/h
1630 24-09-2011 14:07:01 19.9 C 8.42 g/m*3 19.9 C 0 km/h
1631 24-09-2011 14:19:01 19.7 C 7.98 g/m*3 19.7 C 0 km/h
1632 24-09-2011 14:31:02 19.9 C 8.08 g/m*3 19.9 C 0 km/h
1633 24-09-2011 14:43:02 20.4 C 7.96 g/m*3 20.4 C 0 km/h
1634 24-09-2011 14:55:02 20.7 C 8.28 g/m*3 20.7 C 0 km/h
1635 24-09-2011 15:07:02 20.8 C 7.97 g/m*3 20.8 C 0 km/h
1636 24-09-2011 15:19:02 21.2 C 7.6 g/m*3 21.2 C 0 km/h
1637 24-09-2011 15:31:02 21.7 C 7.82 g/m*3 21.7 C 0 km/h
1638 24-09-2011 15:43:02 22.5 C 7.59 g/m*3 22.5 C 0 km/h
1639 24-09-2011 15:55:02 21.9 C 7.91 g/m*3 21.9 C 0 km/h
1640 24-09-2011 16:07:02 22.1 C 7.61 g/m*3 22.1 C 0 km/h
1641 24-09-2011 16:19:02 24.7 C 8.15 g/m*3 24.7 C 0 km/h
1642 24-09-2011 16:31:02 26.5 C 7.76 g/m*3 26.5 C 0 km/h
1643 24-09-2011 16:43:02 27.2 C 7.81 g/m*3 27.2 C 0 km/h
1644 24-09-2011 16:55:02 26.6 C 7.55 g/m*3 26.6 C 0 km/h
1645 24-09-2011 17:07:02 26.2 C 6.65 g/m*3 26.2 C 0 km/h
1646 24-09-2011 17:19:03 26.5 C 8.26 g/m*3 26.5 C 0 km/h
1647 24-09-2011 17:31:02 27.1 C 8.02 g/m*3 27.1 C 0 km/h
1648 24-09-2011 17:43:02 25.8 C 8.19 g/m*3 25.8 C 0 km/h
1649 24-09-2011 17:55:03 25.4 C 8.48 g/m*3 25.4 C 0 km/h
1650 24-09-2011 18:07:02 24.7 C 8.83 g/m*3 24.7 C 0 km/h
Sensor: Nr:Datum:Temp:Abs-Feuchte:Windchill:Wind:
Aussen-T/F 1651 24-09-2011 18:19:02 22.6 C 8.64 g/m*3 22.6 C 0 km/h
1652 24-09-2011 18:31:02 21.7 C 8.97 g/m*3 21.7 C 0 km/h
1653 24-09-2011 18:43:02 20.2 C 8.74 g/m*3 20.2 C 0 km/h
1654 24-09-2011 18:55:02 19.1 C 8.69 g/m*3 19.1 C 0 km/h
1655 24-09-2011 19:07:02 17.6 C 8.85 g/m*3 17.6 C 0 km/h
1656 24-09-2011 19:19:02 16.4 C 8.93 g/m*3 16.4 C 0 km/h
1657 24-09-2011 19:31:02 15.9 C 9.07 g/m*3 15.9 C 0 km/h
1658 24-09-2011 19:43:02 15.7 C 8.96 g/m*3 15.7 C 0 km/h
1659 24-09-2011 19:55:02 15.5 C 8.99 g/m*3 15.5 C 0 km/h
1660 24-09-2011 20:07:02 15.4 C 9.07 g/m*3 15.4 C 0 km/h
1661 24-09-2011 20:19:01 15.3 C 9.01 g/m*3 15.3 C 0 km/h
1662 24-09-2011 20:31:02 15.4 C 9.07 g/m*3 15.4 C 0 km/h
1663 24-09-2011 20:43:03 15.9 C 9.34 g/m*3 15.9 C 0 km/h
1664 24-09-2011 20:55:02 15.5 C 9.25 g/m*3 15.5 C 0 km/h
1665 24-09-2011 21:07:02 15.2 C 9.35 g/m*3 15.2 C 0 km/h
1666 24-09-2011 21:19:01 15 C 9.36 g/m*3 15 C 0 km/h
1667 24-09-2011 21:31:02 14.4 C 9.27 g/m*3 14.4 C 0 km/h
1668 24-09-2011 21:43:02 14.1 C 9.34 g/m*3 14.1 C 0 km/h
1669 24-09-2011 21:55:02 13.5 C 9.12 g/m*3 13.5 C 0 km/h
1670 24-09-2011 22:07:02 13.2 C 9.19 g/m*3 13.2 C 0 km/h
1671 24-09-2011 22:19:02 13.1 C 9.13 g/m*3 13.1 C 0 km/h
1672 24-09-2011 22:31:02 13 C 9.19 g/m*3 13 C 0 km/h
1673 24-09-2011 22:43:02 13.2 C 9.42 g/m*3 13.2 C 0 km/h
1674 24-09-2011 22:55:01 12.4 C 8.96 g/m*3 12.4 C 0 km/h
1675 24-09-2011 23:07:01 12 C 8.85 g/m*3 12 C 0 km/h
Sensor: Nr:Datum:Temp:Abs-Feuchte:Windchill:Wind:
Aussen-T/F 1676 24-09-2011 23:19:01 11.9 C 8.79 g/m*3 11.9 C 0 km/h
1677 24-09-2011 23:31:01 11.8 C 8.95 g/m*3 11.8 C 0 km/h
1678 24-09-2011 23:43:01 11.8 C 9.05 g/m*3 11.8 C 0 km/h
1679 24-09-2011 23:55:01 11.7 C 9.1 g/m*3 11.7 C 0 km/h

Legende:
   Min
   Max


Maximal/Minimal-Werte vom 11.09.2011 - 24.09.2011

Sensor Min Max Avg
Temp
(Aussen-T/F)
5.5 °C
24-09-2011  06:07:02
27.3 °C
12-09-2011  16:19:02
14.7 °C
Abs-Feuchte
(Aussen-T/F)
4.58 g/m*3
14-09-2011  18:09:02
14.69 g/m*3
11-09-2011  00:30:49
8.5 g/m*3
Windchill
(Aussen-T/F)
5.5 C
24-09-2011  06:07:02
27.3 C
12-09-2011  16:19:02
14.69 C

Die Daten stammen von einer Davis Vantage Pro 2 Wetter-Station und werden unter Linux mit der Software wview2wettercgi und aufbereitet. Alle Angaben erfolgen ohne Gewähr für ihre Vollständigkeit oder Richtigkeit.
Kontakt: Rainer Krienke krienke@uni-koblenz.de . Meine Webseiten an der Uni Koblenz oder privat.
Version: $Revision: 0.78 $